Wetterdaten: Montag, 01.09.2014
Datum Zeit Temp. Aussen +5cm Feuchte Auss Luftdruck Regen Sonnenschein Regendauer UV Solar Windben
01.09.2014 00:00 11,9 C 10,6 C 95 % 1017,7 hPa 0,0 l/m 0 min 0 min 0,0 UV-I 0 W/m 0,0 km/h (0 Bft)
01.09.2014 00:02 11,9 C 10,6 C 95 % 1017,6 hPa 0,0 l/m 0 min 0 min 0,0 UV-I 0 W/m 0,0 km/h (0 Bft)
01.09.2014 00:05 11,9 C 10,6 C 95 % 1017,7 hPa 0,0 l/m 0 min 0 min 0,0 UV-I 0 W/m 5,5 km/h (1 Bft)
01.09.2014 00:06 11,8 C 10,6 C 95 % 1017,7 hPa 0,0 l/m 0 min 0 min 0,0 UV-I 0 W/m 8,2 km/h (2 Bft)
01.09.2014 00:08 11,8 C 10,6 C 95 % 1017,7 hPa 0,0 l/m 0 min 0 min 0,0 UV-I 0 W/m 8,2 km/h (2 Bft)
01.09.2014 00:10 11,8 C 10,6 C 95 % 1017,7 hPa 0,0 l/m 0 min 0 min 0,0 UV-I 0 W/m 5,5 km/h (1 Bft)
01.09.2014 00:12 11,8 C 10,6 C 95 % 1017,7 hPa 0,0 l/m 0 min 0 min 0,0 UV-I 0 W/m 0,0 km/h (0 Bft)
01.09.2014 00:14 11,8 C 10,6 C 95 % 1017,8 hPa 0,0 l/m 0 min 0 min 0,0 UV-I 0 W/m 0,0 km/h (0 Bft)
01.09.2014 00:16 11,8 C 10,6 C 95 % 1017,8 hPa 0,0 l/m 0 min 0 min 0,0 UV-I 0 W/m 0,0 km/h (0 Bft)
01.09.2014 00:18 11,8 C 10,6 C 95 % 1017,8 hPa 0,0 l/m 0 min 0 min 0,0 UV-I 0 W/m 5,5 km/h (1 Bft)
01.09.2014 00:20 11,8 C 10,0 C 95 % 1017,9 hPa 0,0 l/m 0 min 0 min 0,0 UV-I 0 W/m 0,0 km/h (0 Bft)
01.09.2014 00:22 11,8 C 10,0 C 95 % 1017,9 hPa 0,0 l/m 0 min 0 min 0,0 UV-I 0 W/m 2,7 km/h (1 Bft)
01.09.2014 00:24 11,8 C 10,0 C 95 % 1017,9 hPa 0,0 l/m 0 min 0 min 0,0 UV-I 0 W/m 0,0 km/h (0 Bft)
01.09.2014 00:26 11,7 C 10,0 C 95 % 1017,9 hPa 0,0 l/m 0 min 0 min 0,0 UV-I 0 W/m 0,0 km/h (0 Bft)
01.09.2014 00:28 11,7 C 10,0 C 95 % 1017,9 hPa 0,0 l/m 0 min 0 min 0,0 UV-I 0 W/m 0,0 km/h (0 Bft)
01.09.2014 00:30 11,7 C 10,0 C 95 % 1017,9 hPa 0,0 l/m 0 min 0 min 0,0 UV-I 0 W/m 0,0 km/h (0 Bft)
01.09.2014 00:32 11,7 C 10,0 C 95 % 1017,9 hPa 0,0 l/m 0 min 0 min 0,0 UV-I 0 W/m 0,0 km/h (0 Bft)
01.09.2014 00:34 11,7 C 10,0 C 95 % 1017,9 hPa 0,0 l/m 0 min 0 min 0,0 UV-I 0 W/m 0,0 km/h (0 Bft)
01.09.2014 00:36 11,7 C 10,0 C 95 % 1017,9 hPa 0,0 l/m 0 min 0 min 0,0 UV-I 0 W/m 0,0 km/h (0 Bft)
01.09.2014 00:38 11,7 C 10,0 C 95 % 1017,9 hPa 0,0 l/m 0 min 0 min 0,0 UV-I 0 W/m 0,0 km/h (0 Bft)
01.09.2014 00:40 11,7 C 10,0 C 95 % 1017,9 hPa 0,0 l/m 0 min 0 min 0,0 UV-I 0 W/m 0,0 km/h (0 Bft)
01.09.2014 00:42 11,7 C 10,0 C 95 % 1017,9 hPa 0,0 l/m 0 min 0 min 0,0 UV-I 0 W/m 0,0 km/h (0 Bft)
01.09.2014 00:44 11,7 C 10,0 C 95 % 1017,9 hPa 0,0 l/m 0 min 0 min 0,0 UV-I 0 W/m 0,0 km/h (0 Bft)
01.09.2014 00:46 11,6 C 10,0 C 95 % 1017,9 hPa 0,0 l/m 0 min 0 min 0,0 UV-I 0 W/m 0,0 km/h (0 Bft)
01.09.2014 00:48 11,6 C 10,0 C 95 % 1017,8 hPa 0,0 l/m 0 min 0 min 0,0 UV-I 0 W/m 0,0 km/h (0 Bft)
01.09.2014 00:50 11,6 C 10,0 C 95 % 1017,9 hPa 0,0 l/m 0 min 0 min 0,0 UV-I 0 W/m 0,0 km/h (0 Bft)
01.09.2014 00:52 11,6 C 10,0 C 95 % 1017,9 hPa 0,0 l/m 0 min 0 min 0,0 UV-I 0 W/m 0,0 km/h (0 Bft)
01.09.2014 00:54 11,6 C 10,0 C 95 % 1017,9 hPa 0,0 l/m 0 min 0 min 0,0 UV-I 0 W/m 0,0 km/h (0 Bft)
01.09.2014 00:56 11,6 C 10,0 C 95 % 1017,9 hPa 0,0 l/m 0 min 0 min 0,0 UV-I 0 W/m 0,0 km/h (0 Bft)
01.09.2014 00:58 11,6 C 10,0 C 95 % 1017,9 hPa 0,0 l/m 0 min 0 min 0,0 UV-I 0 W/m 0,0 km/h (0 Bft)
01.09.2014 01:00 11,6 C 10,0 C 96 % 1017,9 hPa 0,0 l/m 0 min 0 min 0,0 UV-I 0 W/m 0,0 km/h (0 Bft)
01.09.2014 01:02 11,6 C 10,0 C 96 % 1017,9 hPa 0,0 l/m 0 min 0 min 0,0 UV-I 0 W/m 0,0 km/h (0 Bft)
01.09.2014 01:04 11,6 C 10,0 C 96 % 1018,0 hPa 0,0 l/m 0 min 0 min 0,0 UV-I 0 W/m 0,0 km/h (0 Bft)
01.09.2014 01:06 11,5 C 10,0 C 95 % 1017,9 hPa 0,0 l/m 0 min 0 min 0,0 UV-I 0 W/m 0,0 km/h (0 Bft)
01.09.2014 01:08 11,5 C 10,0 C 95 % 1018,1 hPa 0,0 l/m 0 min 0 min 0,0 UV-I 0 W/m 0,0 km/h (0 Bft)
01.09.2014 01:10 11,5 C 10,0 C 95 % 1018,0 hPa 0,0 l/m 0 min 0 min 0,0 UV-I 0 W/m 0,0 km/h (0 Bft)
01.09.2014 01:12 11,5 C 10,0 C 95 % 1018,0 hPa 0,0 l/m 0 min 0 min 0,0 UV-I 0 W/m 0,0 km/h (0 Bft)
01.09.2014 01:14 11,5 C 10,0 C 95 % 1018,0 hPa 0,0 l/m 0 min 0 min 0,0 UV-I 0 W/m 0,0 km/h (0 Bft)
01.09.2014 01:16 11,4 C 10,0 C 95 % 1017,9 hPa 0,0 l/m 0 min 0 min 0,0 UV-I 0 W/m 0,0 km/h (0 Bft)
01.09.2014 01:18 11,4 C 10,0 C 96 % 1018,0 hPa 0,0 l/m 0 min 0 min 0,0 UV-I 0 W/m 0,0 km/h (0 Bft)
01.09.2014 01:20 11,4 C 10,0 C 96 % 1017,9 hPa 0,0 l/m 0 min 0 min 0,0 UV-I 0 W/m 0,0 km/h (0 Bft)
01.09.2014 01:22 11,4 C 10,0 C 96 % 1018,0 hPa 0,0 l/m 0 min 0 min 0,0 UV-I 0 W/m 0,0 km/h (0 Bft)
01.09.2014 01:24 11,4 C 10,0 C 96 % 1018,0 hPa 0,0 l/m 0 min 0 min 0,0 UV-I 0 W/m 0,0 km/h (0 Bft)
01.09.2014 01:26 11,4 C 10,0 C 96 % 1018,1 hPa 0,0 l/m 0 min 0 min 0,0 UV-I 0 W/m 0,0 km/h (0 Bft)
01.09.2014 01:28 11,4 C 10,0 C 96 % 1018,1 hPa 0,0 l/m 0 min 0 min 0,0 UV-I 0 W/m 0,0 km/h (0 Bft)
01.09.2014 01:30 11,4 C 10,0 C 96 % 1018,0 hPa 0,0 l/m 0 min 0 min 0,0 UV-I 0 W/m 0,0 km/h (0 Bft)
01.09.2014 01:32 11,4 C 10,0 C 96 % 1018,0 hPa 0,0 l/m 0 min 0 min 0,0 UV-I 0 W/m 0,0 km/h (0 Bft)
01.09.2014 01:34 11,4 C 10,0 C 96 % 1018,1 hPa 0,0 l/m 0 min 0 min 0,0 UV-I 0 W/m 0,0 km/h (0 Bft)
01.09.2014 01:36 11,4 C 10,0 C 96 % 1018,0 hPa 0,0 l/m 0 min 0 min 0,0 UV-I 0 W/m 0,0 km/h (0 Bft)
01.09.2014 01:38 11,4 C 10,0 C 96 % 1018,0 hPa 0,0 l/m 0 min 0 min 0,0 UV-I 0 W/m 0,0 km/h (0 Bft)
01.09.2014 01:40 11,4 C 10,0 C 96 % 1018,0 hPa 0,0 l/m 0 min 0 min 0,0 UV-I 0 W/m 0,0 km/h (0 Bft)
01.09.2014 01:42 11,3 C 10,0 C 96 % 1018,1 hPa 0,0 l/m 0 min 0 min 0,0 UV-I 0 W/m 0,0 km/h (0 Bft)
01.09.2014 01:44 11,3 C 10,0 C 96 % 1018,0 hPa 0,0 l/m 0 min 0 min 0,0 UV-I 0 W/m 0,0 km/h (0 Bft)
01.09.2014 01:46 11,3 C 10,0 C 96 % 1018,1 hPa 0,0 l/m 0 min 0 min 0,0 UV-I 0 W/m 0,0 km/h (0 Bft)
01.09.2014 01:48 11,3 C 9,4 C 96 % 1018,1 hPa 0,0 l/m 0 min 0 min 0,0 UV-I 0 W/m 0,0 km/h (0 Bft)
01.09.2014 01:50 11,3 C 9,4 C 96 % 1018,0 hPa 0,0 l/m 0 min 0 min 0,0 UV-I 0 W/m 0,0 km/h (0 Bft)
01.09.2014 01:52 11,3 C 9,4 C 96 % 1018,1 hPa 0,0 l/m 0 min 0 min 0,0 UV-I 0 W/m 0,0 km/h (0 Bft)
01.09.2014 01:54 11,3 C 9,4 C 96 % 1018,2 hPa 0,0 l/m 0 min 0 min 0,0 UV-I 0 W/m 0,0 km/h (0 Bft)
01.09.2014 01:56 11,2 C 9,4 C 96 % 1018,2 hPa 0,0 l/m 0 min 0 min 0,0 UV-I 0 W/m 0,0 km/h (0 Bft)
01.09.2014 01:58 11,2 C 9,4 C 96 % 1018,2 hPa 0,0 l/m 0 min 0 min 0,0 UV-I 0 W/m 0,0 km/h (0 Bft)
01.09.2014 02:00 11,2 C 9,4 C 96 % 1018,1 hPa 0,0 l/m 0 min 0 min 0,0 UV-I 0 W/m 0,0 km/h (0 Bft)
01.09.2014 02:02 11,2 C 9,4 C 96 % 1018,1 hPa 0,0 l/m 0 min 0 min 0,0 UV-I 0 W/m 0,0 km/h (0 Bft)
01.09.2014 02:04 11,2 C 9,4 C 96 % 1018,1 hPa 0,0 l/m 0 min 0 min 0,0 UV-I 0 W/m 0,0 km/h (0 Bft)
01.09.2014 02:06 11,2 C 9,4 C 96 % 1018,0 hPa 0,0 l/m 0 min 0 min 0,0 UV-I 0 W/m 0,0 km/h (0 Bft)
01.09.2014 02:08 11,1 C 9,4 C 96 % 1018,2 hPa 0,0 l/m 0 min 0 min 0,0 UV-I 0 W/m 0,0 km/h (0 Bft)
01.09.2014 02:10 11,1 C 9,4 C 96 % 1018,2 hPa 0,0 l/m 0 min 0 min 0,0 UV-I 0 W/m 0,0 km/h (0 Bft)
01.09.2014 02:12 11,1 C 9,4 C 96 % 1018,2 hPa 0,0 l/m 0 min 0 min 0,0 UV-I 0 W/m 0,0 km/h (0 Bft)
01.09.2014 02:14 11,1 C 9,4 C 96 % 1018,2 hPa 0,0 l/m 0 min 0 min 0,0 UV-I 0 W/m 0,0 km/h (0 Bft)
01.09.2014 02:16 11,1 C 9,4 C 96 % 1018,3 hPa 0,0 l/m 0 min 0 min 0,0 UV-I 0 W/m 0,0 km/h (0 Bft)
01.09.2014 02:18 11,1 C 9,4 C 96 % 1018,3 hPa 0,0 l/m 0 min 0 min 0,0 UV-I 0 W/m 0,0 km/h (0 Bft)
01.09.2014 02:20 11,1 C 9,4 C 96 % 1018,3 hPa 0,0 l/m 0 min 0 min 0,0 UV-I 0 W/m 0,0 km/h (0 Bft)
01.09.2014 02:22 11,0 C 9,4 C 96 % 1018,3 hPa 0,0 l/m 0 min 0 min 0,0 UV-I 0 W/m 0,0 km/h (0 Bft)
01.09.2014 02:24 11,0 C 9,4 C 96 % 1018,4 hPa 0,0 l/m 0 min 0 min 0,0 UV-I 0 W/m 0,0 km/h (0 Bft)
01.09.2014 02:26 11,0 C 9,4 C 96 % 1018,3 hPa 0,0 l/m 0 min 0 min 0,0 UV-I 0 W/m 0,0 km/h (0 Bft)
01.09.2014 02:28 10,9 C 9,4 C 96 % 1018,3 hPa 0,0 l/m 0 min 0 min 0,0 UV-I 0 W/m 0,0 km/h (0 Bft)
01.09.2014 02:30 10,9 C 9,4 C 96 % 1018,3 hPa 0,0 l/m 0 min 0 min 0,0 UV-I 0 W/m 0,0 km/h (0 Bft)
01.09.2014 02:32 10,9 C 9,4 C 96 % 1018,4 hPa 0,0 l/m 0 min 0 min 0,0 UV-I 0 W/m 0,0 km/h (0 Bft)
01.09.2014 02:34 10,9 C 9,4 C 96 % 1018,4 hPa 0,0 l/m 0 min 0 min 0,0 UV-I 0 W/m 0,0 km/h (0 Bft)
01.09.2014 02:36 10,9 C 9,4 C 96 % 1018,4 hPa 0,0 l/m 0 min 0 min 0,0 UV-I 0 W/m 0,0 km/h (0 Bft)
01.09.2014 02:38 10,9 C 9,4 C 96 % 1018,4 hPa 0,0 l/m 0 min 0 min 0,0 UV-I 0 W/m 0,0 km/h (0 Bft)
01.09.2014 02:40 10,9 C 9,4 C 96 % 1018,4 hPa 0,0 l/m 0 min 0 min 0,0 UV-I 0 W/m 0,0 km/h (0 Bft)
01.09.2014 02:42 10,9 C 9,4 C 96 % 1018,4 hPa 0,0 l/m 0 min 0 min 0,0 UV-I 0 W/m 0,0 km/h (0 Bft)
01.09.2014 02:44 10,9 C 9,4 C 96 % 1018,4 hPa 0,0 l/m 0 min 0 min 0,0 UV-I 0 W/m 5,5 km/h (1 Bft)
01.09.2014 02:46 10,9 C 9,4 C 96 % 1018,3 hPa 0,0 l/m 0 min 0 min 0,0 UV-I 0 W/m 2,7 km/h (1 Bft)
01.09.2014 02:48 10,9 C 9,4 C 96 % 1018,4 hPa 0,0 l/m 0 min 0 min 0,0 UV-I 0 W/m 2,7 km/h (1 Bft)
01.09.2014 02:50 10,9 C 9,4 C 96 % 1018,3 hPa 0,0 l/m 0 min 0 min 0,0 UV-I 0 W/m 5,5 km/h (1 Bft)
01.09.2014 02:52 10,9 C 10,0 C 96 % 1018,4 hPa 0,0 l/m 0 min 0 min 0,0 UV-I 0 W/m 8,2 km/h (2 Bft)
01.09.2014 02:54 10,9 C 10,0 C 96 % 1018,4 hPa 0,0 l/m 0 min 0 min 0,0 UV-I 0 W/m 5,5 km/h (1 Bft)
01.09.2014 02:56 10,9 C 10,0 C 96 % 1018,5 hPa 0,0 l/m 0 min 0 min 0,0 UV-I 0 W/m 8,2 km/h (2 Bft)
01.09.2014 02:58 10,9 C 10,0 C 96 % 1018,4 hPa 0,0 l/m 0 min 0 min 0,0 UV-I 0 W/m 2,7 km/h (1 Bft)
01.09.2014 03:00 10,9 C 10,0 C 96 % 1018,4 hPa 0,0 l/m 0 min 0 min 0,0 UV-I 0 W/m 8,2 km/h (2 Bft)
01.09.2014 03:02 10,9 C 10,0 C 96 % 1018,4 hPa 0,0 l/m 0 min 0 min 0,0 UV-I 0 W/m 8,2 km/h (2 Bft)
01.09.2014 03:04 10,9 C 10,0 C 96 % 1018,4 hPa 0,0 l/m 0 min 0 min 0,0 UV-I 0 W/m 5,5 km/h (1 Bft)
01.09.2014 03:06 10,9 C 10,0 C 96 % 1018,4 hPa 0,0 l/m 0 min 0 min 0,0 UV-I 0 W/m 5,5 km/h (1 Bft)
01.09.2014 03:08 10,9 C 10,0 C 96 % 1018,4 hPa 0,0 l/m 0 min 0 min 0,0 UV-I 0 W/m 5,5 km/h (1 Bft)
01.09.2014 03:10 10,9 C 10,0 C 96 % 1018,4 hPa 0,0 l/m 0 min 0 min 0,0 UV-I 0 W/m 5,5 km/h (1 Bft)
01.09.2014 03:12 10,9 C 10,0 C 96 % 1018,4 hPa 0,0 l/m 0 min 0 min 0,0 UV-I 0 W/m 2,7 km/h (1 Bft)
01.09.2014 03:14 10,9 C 10,0 C 96 % 1018,5 hPa 0,0 l/m 0 min 0 min 0,0 UV-I 0 W/m 8,2 km/h (2 Bft)
01.09.2014 03:16 10,9 C 10,0 C 96 % 1018,5 hPa 0,0 l/m 0 min 0 min 0,0 UV-I 0 W/m 8,2 km/h (2 Bft)
01.09.2014 03:18 10,9 C 10,0 C 96 % 1018,5 hPa 0,0 l/m 0 min 0 min 0,0 UV-I 0 W/m 10,9 km/h (2 Bft)
01.09.2014 03:20 11,0 C 10,0 C 96 % 1018,5 hPa 0,0 l/m 0 min 0 min 0,0 UV-I 0 W/m 10,9 km/h (2 Bft)
01.09.2014 03:22 11,0 C 10,0 C 96 % 1018,5 hPa 0,0 l/m 0 min 0 min 0,0 UV-I 0 W/m 8,2 km/h (2 Bft)
01.09.2014 03:24 11,0 C 10,0 C 96 % 1018,5 hPa 0,0 l/m 0 min 0 min 0,0 UV-I 0 W/m 8,2 km/h (2 Bft)
01.09.2014 03:26 11,0 C 10,0 C 97 % 1018,6 hPa 0,0 l/m 0 min 0 min 0,0 UV-I 0 W/m 2,7 km/h (1 Bft)
01.09.2014 03:28 11,1 C 10,0 C 97 % 1018,5 hPa 0,0 l/m 0 min 0 min 0,0 UV-I 0 W/m 5,5 km/h (1 Bft)
01.09.2014 03:30 11,1 C 10,0 C 97 % 1018,5 hPa 0,0 l/m 0 min 0 min 0,0 UV-I 0 W/m 0,0 km/h (0 Bft)
01.09.2014 03:32 11,1 C 10,0 C 97 % 1018,6 hPa 0,0 l/m 0 min 0 min 0,0 UV-I 0 W/m 2,7 km/h (1 Bft)
01.09.2014 03:34 11,1 C 9,4 C 97 % 1018,6 hPa 0,0 l/m 0 min 0 min 0,0 UV-I 0 W/m 0,0 km/h (0 Bft)
01.09.2014 03:36 11,0 C 10,0 C 97 % 1018,6 hPa 0,0 l/m 0 min 0 min 0,0 UV-I 0 W/m 2,7 km/h (1 Bft)
01.09.2014 03:38 11,0 C 10,0 C 96 % 1018,6 hPa 0,0 l/m 0 min 0 min 0,0 UV-I 0 W/m 8,2 km/h (2 Bft)
01.09.2014 03:40 11,0 C 10,0 C 97 % 1018,6 hPa 0,0 l/m 0 min 0 min 0,0 UV-I 0 W/m 8,2 km/h (2 Bft)
01.09.2014 03:42 11,0 C 10,0 C 97 % 1018,6 hPa 0,0 l/m 0 min 0 min 0,0 UV-I 0 W/m 8,2 km/h (2 Bft)
01.09.2014 03:44 11,0 C 10,0 C 97 % 1018,7 hPa 0,0 l/m 0 min 0 min 0,0 UV-I 0 W/m 5,5 km/h (1 Bft)
01.09.2014 03:46 11,0 C 10,0 C 97 % 1018,6 hPa 0,0 l/m 0 min 0 min 0,0 UV-I 0 W/m 5,5 km/h (1 Bft)
01.09.2014 03:48 11,0 C 10,0 C 97 % 1018,6 hPa 0,0 l/m 0 min 0 min 0,0 UV-I 0 W/m 5,5 km/h (1 Bft)
01.09.2014 03:50 10,9 C 10,0 C 97 % 1018,6 hPa 0,0 l/m 0 min 0 min 0,0 UV-I 0 W/m 5,5 km/h (1 Bft)
01.09.2014 03:52 10,9 C 10,0 C 97 % 1018,6 hPa 0,0 l/m 0 min 0 min 0,0 UV-I 0 W/m 0,0 km/h (0 Bft)
01.09.2014 03:54 10,9 C 9,4 C 97 % 1018,6 hPa 0,0 l/m 0 min 0 min 0,0 UV-I 0 W/m 5,5 km/h (1 Bft)
01.09.2014 03:56 10,9 C 10,0 C 97 % 1018,6 hPa 0,0 l/m 0 min 0 min 0,0 UV-I 0 W/m 2,7 km/h (1 Bft)
01.09.2014 03:58 10,9 C 9,4 C 97 % 1018,6 hPa 0,0 l/m 0 min 0 min 0,0 UV-I 0 W/m 5,5 km/h (1 Bft)
01.09.2014 04:00 10,9 C 9,4 C 97 % 1018,6 hPa 0,0 l/m 0 min 0 min 0,0 UV-I 0 W/m 8,2 km/h (2 Bft)
01.09.2014 04:02 10,9 C 9,4 C 97 % 1018,6 hPa 0,0 l/m 0 min 0 min 0,0 UV-I 0 W/m 0,0 km/h (0 Bft)
01.09.2014 04:04 10,9 C 10,0 C 97 % 1018,6 hPa 0,0 l/m 0 min 0 min 0,0 UV-I 0 W/m 5,5 km/h (1 Bft)
01.09.2014 04:06 10,9 C 10,0 C 97 % 1018,7 hPa 0,0 l/m 0 min 0 min 0,0 UV-I 0 W/m 8,2 km/h (2 Bft)
01.09.2014 04:08 10,9 C 10,0 C 97 % 1018,7 hPa 0,0 l/m 0 min 0 min 0,0 UV-I 0 W/m 0,0 km/h (0 Bft)
01.09.2014 04:10 10,9 C 10,0 C 97 % 1018,8 hPa 0,0 l/m 0 min 0 min 0,0 UV-I 0 W/m 8,2 km/h (2 Bft)
01.09.2014 04:12 10,8 C 10,0 C 97 % 1018,8 hPa 0,0 l/m 0 min 0 min 0,0 UV-I 0 W/m 8,2 km/h (2 Bft)
01.09.2014 04:14 10,8 C 10,0 C 97 % 1018,8 hPa 0,0 l/m 0 min 0 min 0,0 UV-I 0 W/m 8,2 km/h (2 Bft)
01.09.2014 04:16 10,8 C 10,0 C 97 % 1018,8 hPa 0,0 l/m 0 min 0 min 0,0 UV-I 0 W/m 8,2 km/h (2 Bft)
01.09.2014 04:18 10,8 C 10,0 C 97 % 1018,8 hPa 0,0 l/m 0 min 0 min 0,0 UV-I 0 W/m 8,2 km/h (2 Bft)
01.09.2014 04:20 10,8 C 10,0 C 97 % 1018,9 hPa 0,0 l/m 0 min 0 min 0,0 UV-I 0 W/m 8,2 km/h (2 Bft)
01.09.2014 04:22 10,8 C 10,0 C 97 % 1018,8 hPa 0,0 l/m 0 min 0 min 0,0 UV-I 0 W/m 8,2 km/h (2 Bft)
01.09.2014 04:24 10,8 C 10,0 C 97 % 1018,8 hPa 0,0 l/m 0 min 0 min 0,0 UV-I 0 W/m 10,9 km/h (2 Bft)
01.09.2014 04:26 10,8 C 10,0 C 97 % 1018,8 hPa 0,0 l/m 0 min 0 min 0,0 UV-I 0 W/m 8,2 km/h (2 Bft)
01.09.2014 04:28 10,8 C 10,0 C 97 % 1018,9 hPa 0,0 l/m 0 min 0 min 0,0 UV-I 0 W/m 10,9 km/h (2 Bft)
01.09.2014 04:30 10,8 C 10,0 C 97 % 1018,9 hPa 0,0 l/m 0 min 0 min 0,0 UV-I 0 W/m 10,9 km/h (2 Bft)
01.09.2014 04:32 10,8 C 10,0 C 97 % 1018,9 hPa 0,0 l/m 0 min 0 min 0,0 UV-I 0 W/m 8,2 km/h (2 Bft)
01.09.2014 04:34 10,9 C 10,0 C 97 % 1019,0 hPa 0,0 l/m 0 min 0 min 0,0 UV-I 0 W/m 5,5 km/h (1 Bft)
01.09.2014 04:36 10,8 C 10,0 C 97 % 1019,0 hPa 0,0 l/m 0 min 0 min 0,0 UV-I 0 W/m 8,2 km/h (2 Bft)
01.09.2014 04:38 10,9 C 10,0 C 97 % 1018,9 hPa 0,0 l/m 0 min 0 min 0,0 UV-I 0 W/m 8,2 km/h (2 Bft)
01.09.2014 04:40 10,9 C 10,0 C 97 % 1019,0 hPa 0,0 l/m 0 min 0 min 0,0 UV-I 0 W/m 5,5 km/h (1 Bft)
01.09.2014 04:42 10,9 C 10,0 C 97 % 1019,0 hPa 0,0 l/m 0 min 0 min 0,0 UV-I 0 W/m 8,2 km/h (2 Bft)
01.09.2014 04:44 10,9 C 10,0 C 97 % 1019,0 hPa 0,0 l/m 0 min 0 min 0,0 UV-I 0 W/m 10,9 km/h (2 Bft)
01.09.2014 04:46 10,9 C 10,0 C 97 % 1019,0 hPa 0,0 l/m 0 min 0 min 0,0 UV-I 0 W/m 10,9 km/h (2 Bft)
01.09.2014 04:48 10,9 C 10,0 C 97 % 1019,1 hPa 0,0 l/m 0 min 0 min 0,0 UV-I 0 W/m 5,5 km/h (1 Bft)
01.09.2014 04:50 10,9 C 10,0 C 97 % 1019,1 hPa 0,0 l/m 0 min 0 min 0,0 UV-I 0 W/m 0,0 km/h (0 Bft)
01.09.2014 04:52 10,9 C 10,0 C 97 % 1019,1 hPa 0,0 l/m 0 min 0 min 0,0 UV-I 0 W/m 0,0 km/h (0 Bft)
01.09.2014 04:54 10,9 C 10,0 C 97 % 1019,1 hPa 0,0 l/m 0 min 0 min 0,0 UV-I 0 W/m 5,5 km/h (1 Bft)
01.09.2014 04:56 10,9 C 10,0 C 97 % 1019,1 hPa 0,0 l/m 0 min 0 min 0,0 UV-I 0 W/m 0,0 km/h (0 Bft)
01.09.2014 04:58 10,9 C 10,0 C 97 % 1019,1 hPa 0,0 l/m 0 min 0 min 0,0 UV-I 0 W/m 2,7 km/h (1 Bft)
01.09.2014 05:00 10,9 C 10,0 C 97 % 1019,1 hPa 0,0 l/m 0 min 0 min 0,0 UV-I 0 W/m 0,0 km/h (0 Bft)
01.09.2014 05:02 10,9 C 10,0 C 97 % 1019,1 hPa 0,0 l/m 0 min 0 min 0,0 UV-I 0 W/m 0,0 km/h (0 Bft)
01.09.2014 05:04 10,9 C 10,0 C 97 % 1019,1 hPa 0,0 l/m 0 min 0 min 0,0 UV-I 0 W/m 0,0 km/h (0 Bft)
01.09.2014 05:06 10,9 C 10,0 C 97 % 1019,2 hPa 0,0 l/m 0 min 0 min 0,0 UV-I 0 W/m 0,0 km/h (0 Bft)
01.09.2014 05:08 10,9 C 10,0 C 97 % 1019,2 hPa 0,0 l/m 0 min 0 min 0,0 UV-I 0 W/m 0,0 km/h (0 Bft)
01.09.2014 05:10 10,9 C 10,0 C 97 % 1019,2 hPa 0,0 l/m 0 min 0 min 0,0 UV-I 0 W/m 0,0 km/h (0 Bft)
01.09.2014 05:12 10,9 C 10,0 C 97 % 1019,3 hPa 0,0 l/m 0 min 0 min 0,0 UV-I 0 W/m 2,7 km/h (1 Bft)
01.09.2014 05:14 10,9 C 10,0 C 97 % 1019,2 hPa 0,0 l/m 0 min 0 min 0,0 UV-I 0 W/m 0,0 km/h (0 Bft)
01.09.2014 05:16 10,9 C 10,0 C 97 % 1019,2 hPa 0,0 l/m 0 min 0 min 0,0 UV-I 0 W/m 0,0 km/h (0 Bft)
01.09.2014 05:18 10,9 C 10,0 C 97 % 1019,2 hPa 0,0 l/m 0 min 0 min 0,0 UV-I 0 W/m 0,0 km/h (0 Bft)
01.09.2014 05:20 10,9 C 10,0 C 97 % 1019,3 hPa 0,0 l/m 0 min 0 min 0,0 UV-I 0 W/m 0,0 km/h (0 Bft)
01.09.2014 05:22 10,9 C 10,0 C 97 % 1019,3 hPa 0,0 l/m 0 min 0 min 0,0 UV-I 0 W/m 5,5 km/h (1 Bft)
01.09.2014 05:24 10,9 C 10,6 C 98 % 1019,3 hPa 0,0 l/m 0 min 0 min 0,0 UV-I 0 W/m 5,5 km/h (1 Bft)
01.09.2014 05:26 11,0 C 10,0 C 98 % 1019,3 hPa 0,0 l/m 0 min 0 min 0,0 UV-I 0 W/m 5,5 km/h (1 Bft)
01.09.2014 05:28 11,0 C 10,0 C 98 % 1019,3 hPa 0,0 l/m 0 min 0 min 0,0 UV-I 0 W/m 8,2 km/h (2 Bft)
01.09.2014 05:30 11,0 C 10,0 C 98 % 1019,4 hPa 0,0 l/m 0 min 0 min 0,0 UV-I 0 W/m 8,2 km/h (2 Bft)
01.09.2014 05:32 11,0 C 10,6 C 98 % 1019,4 hPa 0,0 l/m 0 min 0 min 0,0 UV-I 0 W/m 5,5 km/h (1 Bft)
01.09.2014 05:34 11,0 C 10,0 C 97 % 1019,4 hPa 0,0 l/m 0 min 0 min 0,0 UV-I 0 W/m 2,7 km/h (1 Bft)
01.09.2014 05:36 11,1 C 10,0 C 98 % 1019,4 hPa 0,0 l/m 0 min 0 min 0,0 UV-I 0 W/m 8,2 km/h (2 Bft)
01.09.2014 05:38 11,1 C 10,6 C 98 % 1019,5 hPa 0,0 l/m 0 min 0 min 0,0 UV-I 0 W/m 8,2 km/h (2 Bft)
01.09.2014 05:40 11,1 C 10,6 C 98 % 1019,5 hPa 0,0 l/m 0 min 0 min 0,0 UV-I 0 W/m 10,9 km/h (2 Bft)
01.09.2014 05:42 11,1 C 10,0 C 98 % 1019,5 hPa 0,0 l/m 0 min 0 min 0,0 UV-I 0 W/m 8,2 km/h (2 Bft)
01.09.2014 05:44 11,1 C 10,0 C 98 % 1019,5 hPa 0,0 l/m 0 min 0 min 0,0 UV-I 0 W/m 8,2 km/h (2 Bft)
01.09.2014 05:46 11,1 C 10,0 C 98 % 1019,5 hPa 0,0 l/m 0 min 0 min 0,0 UV-I 0 W/m 0,0 km/h (0 Bft)
01.09.2014 05:48 11,1 C 10,6 C 98 % 1019,5 hPa 0,0 l/m 0 min 0 min 0,0 UV-I 0 W/m 5,5 km/h (1 Bft)
01.09.2014 05:50 11,1 C 10,6 C 98 % 1019,5 hPa 0,0 l/m 0 min 0 min 0,0 UV-I 0 W/m 8,2 km/h (2 Bft)
01.09.2014 05:52 11,1 C 10,6 C 98 % 1019,5 hPa 0,0 l/m 0 min 0 min 0,0 UV-I 0 W/m 8,2 km/h (2 Bft)
01.09.2014 05:54 11,1 C 10,0 C 98 % 1019,5 hPa 0,0 l/m 0 min 0 min 0,0 UV-I 0 W/m 8,2 km/h (2 Bft)
01.09.2014 05:56 11,1 C 10,0 C 98 % 1019,6 hPa 0,0 l/m 0 min 0 min 0,0 UV-I 0 W/m 5,5 km/h (1 Bft)
01.09.2014 05:58 11,1 C 10,6 C 98 % 1019,6 hPa 0,0 l/m 0 min 0 min 0,0 UV-I 0 W/m 2,7 km/h (1 Bft)
01.09.2014 06:00 11,1 C 10,6 C 98 % 1019,7 hPa 0,0 l/m 0 min 0 min 0,0 UV-I 0 W/m 10,9 km/h (2 Bft)
01.09.2014 06:02 11,1 C 10,6 C 98 % 1019,7 hPa 0,0 l/m 0 min 0 min 0,0 UV-I 0 W/m 8,2 km/h (2 Bft)
01.09.2014 06:05 11,1 C 10,6 C 98 % 1019,6 hPa 0,0 l/m 0 min 0 min 0,0 UV-I 0 W/m 5,5 km/h (1 Bft)
01.09.2014 06:06 11,1 C 10,6 C 98 % 1019,6 hPa 0,0 l/m 0 min 0 min 0,0 UV-I 0 W/m 8,2 km/h (2 Bft)
01.09.2014 06:08 11,1 C 10,6 C 98 % 1019,6 hPa 0,0 l/m 0 min 0 min 0,0 UV-I 0 W/m 2,7 km/h (1 Bft)
01.09.2014 06:10 11,1 C 10,6 C 98 % 1019,6 hPa 0,0 l/m 0 min 0 min 0,0 UV-I 0 W/m 10,9 km/h (2 Bft)
01.09.2014 06:12 11,1 C 10,6 C 98 % 1019,6 hPa 0,0 l/m 0 min 0 min 0,0 UV-I 0 W/m 13,6 km/h (3 Bft)
01.09.2014 06:14 11,1 C 10,6 C 98 % 1019,5 hPa 0,0 l/m 0 min 0 min 0,0 UV-I 0 W/m 0,0 km/h (0 Bft)
01.09.2014 06:16 11,2 C 10,6 C 98 % 1019,6 hPa 0,0 l/m 0 min 0 min 0,0 UV-I 0 W/m 5,5 km/h (1 Bft)
01.09.2014 06:18 11,2 C 10,6 C 98 % 1019,6 hPa 0,0 l/m 0 min 0 min 0,0 UV-I 0 W/m 5,5 km/h (1 Bft)
01.09.2014 06:20 11,2 C 10,6 C 98 % 1019,5 hPa 0,0 l/m 0 min 0 min 0,0 UV-I 0 W/m 0,0 km/h (0 Bft)
01.09.2014 06:22 11,2 C 10,6 C 98 % 1019,6 hPa 0,0 l/m 0 min 0 min 0,0 UV-I 0 W/m 8,2 km/h (2 Bft)
01.09.2014 06:24 11,2 C 10,6 C 98 % 1019,5 hPa 0,0 l/m 0 min 0 min 0,0 UV-I 0 W/m 10,9 km/h (2 Bft)
01.09.2014 06:26 11,2 C 10,6 C 98 % 1019,5 hPa 0,0 l/m 0 min 0 min 0,0 UV-I 0 W/m 0,0 km/h (0 Bft)
01.09.2014 06:28 11,2 C 10,6 C 98 % 1019,5 hPa 0,0 l/m 0 min 0 min 0,0 UV-I 0 W/m 0,0 km/h (0 Bft)
01.09.2014 06:30 11,2 C 10,6 C 98 % 1019,5 hPa 0,0 l/m 0 min 0 min 0,0 UV-I 0 W/m 0,0 km/h (0 Bft)
01.09.2014 06:32 11,2 C 10,6 C 98 % 1019,5 hPa 0,0 l/m 0 min 0 min 0,0 UV-I 0 W/m 0,0 km/h (0 Bft)
01.09.2014 06:34 11,2 C 10,6 C 98 % 1019,6 hPa 0,0 l/m 0 min 0 min 0,0 UV-I 0 W/m 2,7 km/h (1 Bft)
01.09.2014 06:36 11,2 C 10,6 C 98 % 1019,6 hPa 0,0 l/m 0 min 0 min 0,0 UV-I 0 W/m 0,0 km/h (0 Bft)
01.09.2014 06:38 11,2 C 10,6 C 98 % 1019,7 hPa 0,0 l/m 0 min 0 min 0,0 UV-I 0 W/m 5,5 km/h (1 Bft)
01.09.2014 06:40 11,2 C 10,6 C 98 % 1019,7 hPa 0,0 l/m 0 min 0 min 0,0 UV-I 0 W/m 10,9 km/h (2 Bft)
01.09.2014 06:42 11,3 C 10,6 C 98 % 1019,6 hPa 0,0 l/m 0 min 0 min 0,0 UV-I 0 W/m 8,2 km/h (2 Bft)
01.09.2014 06:44 11,3 C 10,6 C 98 % 1019,6 hPa 0,0 l/m 0 min 0 min 0,0 UV-I 0 W/m 8,2 km/h (2 Bft)
01.09.2014 06:46 11,3 C 10,6 C 98 % 1019,6 hPa 0,0 l/m 0 min 0 min 0,0 UV-I 0 W/m 0,0 km/h (0 Bft)
01.09.2014 06:48 11,3 C 10,6 C 98 % 1019,6 hPa 0,0 l/m 0 min 0 min 0,0 UV-I 0 W/m 2,7 km/h (1 Bft)
01.09.2014 06:50 11,3 C 10,6 C 98 % 1019,7 hPa 0,0 l/m 0 min 0 min 0,0 UV-I 0 W/m 0,0 km/h (0 Bft)
01.09.2014 06:52 11,3 C 10,6 C 98 % 1019,7 hPa 0,0 l/m 0 min 0 min 0,0 UV-I 0 W/m 0,0 km/h (0 Bft)
01.09.2014 06:54 11,3 C 10,6 C 98 % 1019,7 hPa 0,0 l/m 0 min 0 min 0,0 UV-I 0 W/m 5,5 km/h (1 Bft)
01.09.2014 06:56 11,4 C 10,6 C 98 % 1019,6 hPa 0,0 l/m 0 min 0 min 0,0 UV-I 0 W/m 0,0 km/h (0 Bft)
01.09.2014 06:58 11,4 C 10,6 C 98 % 1019,6 hPa 0,0 l/m 0 min 0 min 0,0 UV-I 0 W/m 2,7 km/h (1 Bft)
01.09.2014 07:00 11,4 C 10,6 C 98 % 1019,5 hPa 0,0 l/m 0 min 0 min 0,0 UV-I 0 W/m 0,0 km/h (0 Bft)
01.09.2014 07:02 11,4 C 10,6 C 98 % 1019,7 hPa 0,0 l/m 0 min 0 min 0,0 UV-I 0 W/m 2,7 km/h (1 Bft)
01.09.2014 07:04 11,4 C 10,6 C 98 % 1019,6 hPa 0,0 l/m 0 min 0 min 0,0 UV-I 0 W/m 0,0 km/h (0 Bft)
01.09.2014 07:06 11,4 C 10,6 C 98 % 1019,6 hPa 0,0 l/m 0 min 0 min 0,0 UV-I 0 W/m 0,0 km/h (0 Bft)
01.09.2014 07:08 11,4 C 10,6 C 98 % 1019,5 hPa 0,0 l/m 0 min 0 min 0,0 UV-I 0 W/m 2,7 km/h (1 Bft)
01.09.2014 07:10 11,4 C 10,6 C 98 % 1019,6 hPa 0,0 l/m 0 min 0 min 0,0 UV-I 0 W/m 0,0 km/h (0 Bft)
01.09.2014 07:12 11,4 C 10,6 C 98 % 1019,6 hPa 0,0 l/m 0 min 0 min 0,0 UV-I 0 W/m 0,0 km/h (0 Bft)
01.09.2014 07:14 11,4 C 11,1 C 98 % 1019,6 hPa 0,0 l/m 0 min 0 min 0,0 UV-I 0 W/m 8,2 km/h (2 Bft)
01.09.2014 07:16 11,5 C 11,1 C 98 % 1019,6 hPa 0,0 l/m 0 min 0 min 0,0 UV-I 0 W/m 8,2 km/h (2 Bft)
01.09.2014 07:18 11,5 C 11,1 C 98 % 1019,7 hPa 0,0 l/m 0 min 0 min 0,0 UV-I 0 W/m 10,9 km/h (2 Bft)
01.09.2014 07:20 11,5 C 10,6 C 98 % 1019,7 hPa 0,0 l/m 0 min 0 min 0,0 UV-I 0 W/m 8,2 km/h (2 Bft)
01.09.2014 07:22 11,5 C 10,6 C 98 % 1019,7 hPa 0,0 l/m 0 min 0 min 0,0 UV-I 0 W/m 8,2 km/h (2 Bft)
01.09.2014 07:24 11,5 C 10,6 C 98 % 1019,8 hPa 0,0 l/m 0 min 0 min 0,0 UV-I 0 W/m 8,2 km/h (2 Bft)
01.09.2014 07:26 11,6 C 10,6 C 98 % 1019,7 hPa 0,0 l/m 0 min 0 min 0,0 UV-I 0 W/m 5,5 km/h (1 Bft)
01.09.2014 07:28 11,6 C 11,1 C 98 % 1019,8 hPa 0,0 l/m 0 min 0 min 0,0 UV-I 0 W/m 2,7 km/h (1 Bft)
01.09.2014 07:30 11,6 C 11,1 C 98 % 1019,7 hPa 0,0 l/m 0 min 0 min 0,0 UV-I 0 W/m 0,0 km/h (0 Bft)
01.09.2014 07:32 11,6 C 11,1 C 98 % 1019,8 hPa 0,0 l/m 0 min 0 min 0,0 UV-I 0 W/m 10,9 km/h (2 Bft)
01.09.2014 07:34 11,6 C 11,1 C 98 % 1019,8 hPa 0,0 l/m 0 min 0 min 0,0 UV-I 0 W/m 10,9 km/h (2 Bft)
01.09.2014 07:36 11,6 C 11,1 C 98 % 1019,7 hPa 0,0 l/m 0 min 0 min 0,0 UV-I 0 W/m 8,2 km/h (2 Bft)
01.09.2014 07:38 11,6 C 11,1 C 98 % 1019,7 hPa 0,0 l/m 0 min 0 min 0,0 UV-I 0 W/m 16,4 km/h (3 Bft)
01.09.2014 07:40 11,6 C 10,6 C 98 % 1019,7 hPa 0,0 l/m 0 min 0 min 0,0 UV-I 0 W/m 13,6 km/h (3 Bft)
01.09.2014 07:42 11,6 C 10,6 C 98 % 1019,7 hPa 0,0 l/m 0 min 0 min 0,0 UV-I 0 W/m 13,6 km/h (3 Bft)
01.09.2014 07:44 11,6 C 10,6 C 98 % 1019,8 hPa 0,0 l/m 0 min 0 min 0,0 UV-I 0 W/m 13,6 km/h (3 Bft)
01.09.2014 07:46 11,7 C 11,1 C 98 % 1019,8 hPa 0,0 l/m 0 min 0 min 0,0 UV-I 0 W/m 13,6 km/h (3 Bft)
01.09.2014 07:48 11,7 C 10,6 C 98 % 1019,8 hPa 0,0 l/m 0 min 0 min 0,0 UV-I 0 W/m 16,4 km/h (3 Bft)
01.09.2014 07:50 11,6 C 10,6 C 98 % 1019,8 hPa 0,0 l/m 0 min 0 min 0,0 UV-I 0 W/m 13,6 km/h (3 Bft)
01.09.2014 07:52 11,7 C 11,1 C 98 % 1019,8 hPa 0,0 l/m 0 min 0 min 0,0 UV-I 0 W/m 8,2 km/h (2 Bft)
01.09.2014 07:54 11,7 C 11,1 C 98 % 1019,7 hPa 0,0 l/m 0 min 0 min 0,0 UV-I 0 W/m 10,9 km/h (2 Bft)
01.09.2014 07:56 11,6 C 11,1 C 98 % 1019,8 hPa 0,0 l/m 0 min 0 min 0,0 UV-I 0 W/m 5,5 km/h (1 Bft)
01.09.2014 07:58 11,7 C 11,1 C 98 % 1019,8 hPa 0,0 l/m 0 min 0 min 0,0 UV-I 0 W/m 5,5 km/h (1 Bft)
01.09.2014 08:00 11,7 C 11,1 C 98 % 1019,7 hPa 0,0 l/m 0 min 0 min 0,0 UV-I 0 W/m 0,0 km/h (0 Bft)
01.09.2014 08:02 11,7 C 11,1 C 98 % 1019,8 hPa 0,0 l/m 0 min 0 min 0,0 UV-I 0 W/m 0,0 km/h (0 Bft)
01.09.2014 08:04 11,7 C 11,1 C 98 % 1019,8 hPa 0,0 l/m 0 min 0 min 0,0 UV-I 0 W/m 0,0 km/h (0 Bft)
01.09.2014 08:06 11,7 C 11,1 C 98 % 1019,8 hPa 0,0 l/m 0 min 0 min 0,0 UV-I 0 W/m 0,0 km/h (0 Bft)
01.09.2014 08:08 11,7 C 11,1 C 98 % 1019,8 hPa 0,0 l/m 0 min 0 min 0,0 UV-I 0 W/m 2,7 km/h (1 Bft)
01.09.2014 08:10 11,7 C 11,1 C 98 % 1019,8 hPa 0,0 l/m 0 min 0 min 0,0 UV-I 0 W/m 0,0 km/h (0 Bft)
01.09.2014 08:12 11,7 C 11,1 C 99 % 1019,9 hPa 0,0 l/m 0 min 0 min 0,0 UV-I 0 W/m 0,0 km/h (0 Bft)
01.09.2014 08:14 11,8 C 11,1 C 99 % 1019,9 hPa 0,0 l/m 0 min 0 min 0,0 UV-I 0 W/m 2,7 km/h (1 Bft)
01.09.2014 08:16 11,8 C 11,1 C 99 % 1019,9 hPa 0,0 l/m 0 min 0 min 0,0 UV-I 0 W/m 0,0 km/h (0 Bft)
01.09.2014 08:18 11,8 C 11,1 C 99 % 1019,9 hPa 0,0 l/m 0 min 0 min 0,0 UV-I 0 W/m 8,2 km/h (2 Bft)
01.09.2014 08:20 11,9 C 11,7 C 99 % 1019,9 hPa 0,0 l/m 0 min 0 min 0,0 UV-I 0 W/m 10,9 km/h (2 Bft)
01.09.2014 08:22 11,9 C 11,7 C 98 % 1019,9 hPa 0,0 l/m 0 min 0 min 0,0 UV-I 0 W/m 5,5 km/h (1 Bft)
01.09.2014 08:24 11,9 C 11,7 C 98 % 1019,9 hPa 0,0 l/m 0 min 0 min 0,0 UV-I 0 W/m 8,2 km/h (2 Bft)
01.09.2014 08:26 12,0 C 11,7 C 98 % 1019,9 hPa 0,0 l/m 0 min 0 min 0,0 UV-I 0 W/m 2,7 km/h (1 Bft)
01.09.2014 08:28 12,0 C 11,7 C 98 % 1019,9 hPa 0,0 l/m 0 min 0 min 0,0 UV-I 0 W/m 8,2 km/h (2 Bft)
01.09.2014 08:30 12,0 C 11,7 C 98 % 1019,9 hPa 0,0 l/m 0 min 0 min 0,0 UV-I 0 W/m 0,0 km/h (0 Bft)
01.09.2014 08:32 12,0 C 11,7 C 98 % 1019,9 hPa 0,0 l/m 0 min 0 min 0,0 UV-I 0 W/m 8,2 km/h (2 Bft)
01.09.2014 08:34 12,1 C 11,7 C 98 % 1019,9 hPa 0,0 l/m 0 min 0 min 0,0 UV-I 0 W/m 8,2 km/h (2 Bft)
01.09.2014 08:36 12,1 C 11,7 C 99 % 1019,9 hPa 0,0 l/m 0 min 0 min 0,0 UV-I 0 W/m 10,9 km/h (2 Bft)
01.09.2014 08:38 12,1 C 11,7 C 99 % 1019,9 hPa 0,0 l/m 0 min 0 min 0,0 UV-I 0 W/m 10,9 km/h (2 Bft)
01.09.2014 08:40 12,1 C 11,7 C 99 % 1019,9 hPa 0,0 l/m 0 min 0 min 0,0 UV-I 0 W/m 10,9 km/h (2 Bft)
01.09.2014 08:42 12,1 C 11,7 C 99 % 1019,9 hPa 0,0 l/m 0 min 0 min 0,0 UV-I 0 W/m 10,9 km/h (2 Bft)
01.09.2014 08:44 12,2 C 11,7 C 99 % 1020,0 hPa 0,0 l/m 0 min 0 min 0,0 UV-I 0 W/m 5,5 km/h (1 Bft)
01.09.2014 08:46 12,2 C 11,7 C 99 % 1020,0 hPa 0,0 l/m 0 min 0 min 0,0 UV-I 0 W/m 10,9 km/h (2 Bft)
01.09.2014 08:48 12,2 C 11,7 C 99 % 1020,1 hPa 0,0 l/m 0 min 0 min 0,0 UV-I 0 W/m 8,2 km/h (2 Bft)
01.09.2014 08:50 12,2 C 11,7 C 99 % 1020,0 hPa 0,0 l/m 0 min 0 min 0,0 UV-I 0 W/m 10,9 km/h (2 Bft)
01.09.2014 08:52 12,3 C 11,7 C 99 % 1020,0 hPa 0,0 l/m 0 min 0 min 0,0 UV-I 0 W/m 8,2 km/h (2 Bft)
01.09.2014 08:54 12,3 C 11,7 C 99 % 1020,1 hPa 0,0 l/m 0 min 0 min 0,0 UV-I 0 W/m 8,2 km/h (2 Bft)
01.09.2014 08:56 12,3 C 11,7 C 99 % 1020,1 hPa 0,0 l/m 0 min 0 min 0,0 UV-I 0 W/m 10,9 km/h (2 Bft)
01.09.2014 08:58 12,3 C 12,2 C 99 % 1020,1 hPa 0,0 l/m 0 min 0 min 0,0 UV-I 0 W/m 8,2 km/h (2 Bft)
01.09.2014 09:00 12,3 C 12,2 C 99 % 1020,1 hPa 0,0 l/m 0 min 0 min 0,0 UV-I 0 W/m 2,7 km/h (1 Bft)
01.09.2014 09:02 12,3 C 12,2 C 99 % 1020,1 hPa 0,0 l/m 0 min 0 min 0,0 UV-I 0 W/m 5,5 km/h (1 Bft)
01.09.2014 09:04 12,4 C 12,2 C 99 % 1020,1 hPa 0,0 l/m 0 min 0 min 0,0 UV-I 0 W/m 0,0 km/h (0 Bft)
01.09.2014 09:06 12,4 C 12,2 C 99 % 1020,2 hPa 0,0 l/m 0 min 0 min 0,0 UV-I 0 W/m 8,2 km/h (2 Bft)
01.09.2014 09:08 12,4 C 12,2 C 99 % 1020,2 hPa 0,0 l/m 0 min 0 min 0,0 UV-I 0 W/m 2,7 km/h (1 Bft)
01.09.2014 09:10 12,4 C 12,2 C 99 % 1020,2 hPa 0,0 l/m 0 min 0 min 0,0 UV-I 0 W/m 8,2 km/h (2 Bft)
01.09.2014 09:12 12,5 C 12,2 C 99 % 1020,3 hPa 0,0 l/m 0 min 0 min 0,0 UV-I 0 W/m 0,0 km/h (0 Bft)
01.09.2014 09:14 12,5 C 12,2 C 99 % 1020,3 hPa 0,0 l/m 0 min 0 min 0,0 UV-I 0 W/m 10,9 km/h (2 Bft)
01.09.2014 09:16 12,5 C 12,2 C 99 % 1020,4 hPa 0,0 l/m 0 min 0 min 0,0 UV-I 0 W/m 10,9 km/h (2 Bft)
01.09.2014 09:18 12,5 C 12,2 C 99 % 1020,4 hPa 0,0 l/m 0 min 0 min 0,0 UV-I 0 W/m 8,2 km/h (2 Bft)
01.09.2014 09:20 12,5 C 12,2 C 99 % 1020,4 hPa 0,0 l/m 0 min 0 min 0,0 UV-I 0 W/m 0,0 km/h (0 Bft)
01.09.2014 09:22 12,6 C 12,2 C 99 % 1020,5 hPa 0,0 l/m 0 min 0 min 0,0 UV-I 0 W/m 0,0 km/h (0 Bft)
01.09.2014 09:24 12,6 C 12,2 C 99 % 1020,5 hPa 0,0 l/m 0 min 0 min 0,0 UV-I 0 W/m 0,0 km/h (0 Bft)
01.09.2014 09:26 12,6 C 12,2 C 99 % 1020,5 hPa 0,0 l/m 0 min 0 min 0,0 UV-I 0 W/m 10,9 km/h (2 Bft)
01.09.2014 09:28 12,6 C 12,2 C 99 % 1020,5 hPa 0,0 l/m 0 min 0 min 0,0 UV-I 0 W/m 10,9 km/h (2 Bft)
01.09.2014 09:30 12,7 C 12,2 C 99 % 1020,5 hPa 0,0 l/m 0 min 0 min 0,0 UV-I 0 W/m 8,2 km/h (2 Bft)
01.09.2014 09:32 12,7 C 12,2 C 99 % 1020,4 hPa 0,0 l/m 0 min 0 min 0,0 UV-I 0 W/m 0,0 km/h (0 Bft)
01.09.2014 09:34 12,7 C 12,2 C 99 % 1020,4 hPa 0,0 l/m 0 min 0 min 0,0 UV-I 0 W/m 0,0 km/h (0 Bft)
01.09.2014 09:36 12,7 C 12,8 C 99 % 1020,4 hPa 0,2 l/m 0 min 0 min 0,0 UV-I 0 W/m 0,0 km/h (0 Bft)
01.09.2014 09:38 12,8 C 12,8 C 99 % 1020,4 hPa 0,0 l/m 0 min 0 min 0,0 UV-I 0 W/m 0,0 km/h (0 Bft)
01.09.2014 09:40 12,8 C 12,8 C 99 % 1020,5 hPa 0,0 l/m 0 min 0 min 0,0 UV-I 0 W/m 10,9 km/h (2 Bft)
01.09.2014 09:42 12,8 C 12,8 C 99 % 1020,4 hPa 0,0 l/m 0 min 0 min 0,0 UV-I 0 W/m 0,0 km/h (0 Bft)
01.09.2014 09:44 12,8 C 12,8 C 99 % 1020,4 hPa 0,0 l/m 0 min 0 min 0,0 UV-I 0 W/m 16,4 km/h (3 Bft)
01.09.2014 09:46 12,9 C 12,8 C 99 % 1020,4 hPa 0,0 l/m 0 min 0 min 0,0 UV-I 0 W/m 13,6 km/h (3 Bft)
01.09.2014 09:48 12,9 C 12,8 C 99 % 1020,4 hPa 0,0 l/m 0 min 0 min 0,0 UV-I 0 W/m 10,9 km/h (2 Bft)
01.09.2014 09:50 12,9 C 12,8 C 99 % 1020,5 hPa 0,0 l/m 0 min 0 min 0,0 UV-I 0 W/m 16,4 km/h (3 Bft)
01.09.2014 09:52 12,9 C 12,8 C 99 % 1020,5 hPa 0,0 l/m 0 min 0 min 0,0 UV-I 0 W/m 16,4 km/h (3 Bft)
01.09.2014 09:54 12,9 C 12,8 C 99 % 1020,5 hPa 0,0 l/m 0 min 0 min 0,0 UV-I 0 W/m 13,6 km/h (3 Bft)
01.09.2014 09:56 12,9 C 12,8 C 99 % 1020,5 hPa 0,0 l/m 0 min 0 min 0,0 UV-I 0 W/m 13,6 km/h (3 Bft)
01.09.2014 09:58 12,9 C 12,8 C 99 % 1020,5 hPa 0,0 l/m 0 min 0 min 0,0 UV-I 0 W/m 10,9 km/h (2 Bft)
01.09.2014 10:00 12,9 C 12,8 C 99 % 1020,5 hPa 0,0 l/m 0 min 0 min 0,0 UV-I 0 W/m 13,6 km/h (3 Bft)
01.09.2014 10:02 13,0 C 12,8 C 99 % 1020,6 hPa 0,0 l/m 0 min 0 min 0,0 UV-I 0 W/m 10,9 km/h (2 Bft)
01.09.2014 10:04 13,0 C 12,8 C 99 % 1020,6 hPa 0,0 l/m 0 min 0 min 0,0 UV-I 0 W/m 10,9 km/h (2 Bft)
01.09.2014 10:06 13,0 C 12,8 C 99 % 1020,6 hPa 0,0 l/m 0 min 0 min 0,0 UV-I 0 W/m 10,9 km/h (2 Bft)
01.09.2014 10:08 13,0 C 12,8 C 99 % 1020,5 hPa 0,0 l/m 0 min 0 min 0,0 UV-I 0 W/m 10,9 km/h (2 Bft)
01.09.2014 10:10 13,1 C 12,8 C 99 % 1020,5 hPa 0,0 l/m 0 min 0 min 0,0 UV-I 0 W/m 8,2 km/h (2 Bft)
01.09.2014 10:12 13,1 C 12,8 C 99 % 1020,5 hPa 0,0 l/m 0 min 0 min 0,0 UV-I 0 W/m 2,7 km/h (1 Bft)
01.09.2014 10:14 13,1 C 13,3 C 99 % 1020,6 hPa 0,0 l/m 0 min 0 min 0,0 UV-I 0 W/m 0,0 km/h (0 Bft)
01.09.2014 10:16 13,1 C 13,3 C 99 % 1020,5 hPa 0,0 l/m 0 min 0 min 0,0 UV-I 0 W/m 5,5 km/h (1 Bft)
01.09.2014 10:18 13,1 C 13,3 C 99 % 1020,6 hPa 0,0 l/m 0 min 0 min 0,0 UV-I 0 W/m 0,0 km/h (0 Bft)
01.09.2014 10:20 13,2 C 13,3 C 99 % 1020,6 hPa 0,0 l/m 0 min 0 min 0,0 UV-I 0 W/m 0,0 km/h (0 Bft)
01.09.2014 10:22 13,2 C 13,3 C 99 % 1020,6 hPa 0,0 l/m 0 min 0 min 0,0 UV-I 0 W/m 0,0 km/h (0 Bft)
01.09.2014 10:24 13,2 C 13,9 C 99 % 1020,7 hPa 0,0 l/m 0 min 0 min 0,0 UV-I 0 W/m 0,0 km/h (0 Bft)
01.09.2014 10:26 13,3 C 13,3 C 99 % 1020,7 hPa 0,0 l/m 0 min 0 min 0,0 UV-I 0 W/m 2,7 km/h (1 Bft)
01.09.2014 10:28 13,3 C 13,9 C 99 % 1020,7 hPa 0,0 l/m 0 min 0 min 0,0 UV-I 0 W/m 10,9 km/h (2 Bft)
01.09.2014 10:30 13,4 C 13,9 C 99 % 1020,7 hPa 0,0 l/m 2 min 0 min 0,0 UV-I 400 W/m 10,9 km/h (2 Bft)
01.09.2014 10:32 13,4 C 13,9 C 99 % 1020,7 hPa 0,0 l/m 0 min 0 min 0,0 UV-I 0 W/m 13,6 km/h (3 Bft)
01.09.2014 10:34 13,4 C 13,9 C 99 % 1020,7 hPa 0,0 l/m 0 min 0 min 0,0 UV-I 0 W/m 10,9 km/h (2 Bft)
01.09.2014 10:36 13,4 C 13,9 C 99 % 1020,8 hPa 0,0 l/m 0 min 0 min 0,0 UV-I 0 W/m 2,7 km/h (1 Bft)
01.09.2014 10:38 13,5 C 13,9 C 99 % 1020,7 hPa 0,0 l/m 0 min 0 min 0,0 UV-I 0 W/m 10,9 km/h (2 Bft)
01.09.2014 10:40 13,5 C 13,9 C 99 % 1020,7 hPa 0,0 l/m 0 min 0 min 0,0 UV-I 0 W/m 13,6 km/h (3 Bft)
01.09.2014 10:42 13,6 C 13,9 C 99 % 1020,8 hPa 0,0 l/m 0 min 0 min 0,0 UV-I 0 W/m 8,2 km/h (2 Bft)
01.09.2014 10:44 13,6 C 14,4 C 99 % 1020,8 hPa 0,0 l/m 0 min 0 min 0,0 UV-I 0 W/m 5,5 km/h (1 Bft)
01.09.2014 10:46 13,7 C 14,4 C 99 % 1020,8 hPa 0,0 l/m 0 min 0 min 0,0 UV-I 0 W/m 8,2 km/h (2 Bft)
01.09.2014 10:48 13,7 C 14,4 C 99 % 1020,8 hPa 0,0 l/m 0 min 0 min 0,0 UV-I 0 W/m 2,7 km/h (1 Bft)
01.09.2014 10:50 13,8 C 14,4 C 99 % 1020,8 hPa 0,0 l/m 0 min 0 min 0,0 UV-I 0 W/m 13,6 km/h (3 Bft)
01.09.2014 10:52 13,8 C 14,4 C 99 % 1020,9 hPa 0,0 l/m 0 min 0 min 0,0 UV-I 0 W/m 10,9 km/h (2 Bft)
01.09.2014 10:54 13,9 C 14,4 C 99 % 1020,8 hPa 0,0 l/m 0 min 0 min 0,0 UV-I 0 W/m 13,6 km/h (3 Bft)
01.09.2014 10:56 13,9 C 14,4 C 99 % 1020,9 hPa 0,0 l/m 0 min 0 min 0,0 UV-I 0 W/m 10,9 km/h (2 Bft)
01.09.2014 10:58 14,0 C 15,0 C 99 % 1020,9 hPa 0,0 l/m 0 min 0 min 0,0 UV-I 0 W/m 0,0 km/h (0 Bft)
01.09.2014 11:00 14,1 C 15,0 C 99 % 1020,9 hPa 0,0 l/m 0 min 0 min 0,0 UV-I 0 W/m 2,7 km/h (1 Bft)
01.09.2014 11:02 14,2 C 15,0 C 99 % 1020,9 hPa 0,0 l/m 0 min 0 min 0,0 UV-I 0 W/m 13,6 km/h (3 Bft)
01.09.2014 11:04 14,2 C 15,0 C 99 % 1020,9 hPa 0,0 l/m 0 min 0 min 0,0 UV-I 0 W/m 16,4 km/h (3 Bft)
01.09.2014 11:06 14,2 C 15,6 C 99 % 1020,9 hPa 0,0 l/m 0 min 0 min 0,0 UV-I 0 W/m 10,9 km/h (2 Bft)
01.09.2014 11:08 14,2 C 15,6 C 99 % 1020,9 hPa 0,0 l/m 0 min 0 min 0,0 UV-I 0 W/m 8,2 km/h (2 Bft)
01.09.2014 11:10 14,4 C 15,6 C 99 % 1021,0 hPa 0,0 l/m 0 min 0 min 0,0 UV-I 0 W/m 8,2 km/h (2 Bft)
01.09.2014 11:12 14,4 C 15,6 C 99 % 1021,0 hPa 0,0 l/m 0 min 0 min 0,0 UV-I 0 W/m 10,9 km/h (2 Bft)
01.09.2014 11:14 14,5 C 15,6 C 99 % 1020,9 hPa 0,0 l/m 0 min 0 min 0,0 UV-I 0 W/m 5,5 km/h (1 Bft)
01.09.2014 11:16 14,6 C 15,6 C 99 % 1020,9 hPa 0,0 l/m 0 min 0 min 0,0 UV-I 0 W/m 8,2 km/h (2 Bft)
01.09.2014 11:18 14,6 C 15,6 C 99 % 1020,9 hPa 0,0 l/m 0 min 0 min 0,0 UV-I 0 W/m 13,6 km/h (3 Bft)
01.09.2014 11:20 14,6 C 15,6 C 99 % 1020,9 hPa 0,0 l/m 0 min 0 min 0,0 UV-I 0 W/m 10,9 km/h (2 Bft)
01.09.2014 11:22 14,6 C 15,6 C 99 % 1020,9 hPa 0,0 l/m 0 min 0 min 0,0 UV-I 0 W/m 10,9 km/h (2 Bft)
01.09.2014 11:24 14,7 C 15,0 C 99 % 1020,9 hPa 0,0 l/m 0 min 0 min 0,0 UV-I 0 W/m 10,9 km/h (2 Bft)
01.09.2014 11:26 14,6 C 15,0 C 99 % 1020,9 hPa 0,0 l/m 0 min 0 min 0,0 UV-I 0 W/m 10,9 km/h (2 Bft)
01.09.2014 11:28 14,6 C 15,0 C 99 % 1020,9 hPa 0,0 l/m 0 min 0 min 0,0 UV-I 0 W/m 2,7 km/h (1 Bft)
01.09.2014 11:30 14,6 C 15,0 C 99 % 1020,9 hPa 0,0 l/m 0 min 0 min 0,0 UV-I 0 W/m 13,6 km/h (3 Bft)
01.09.2014 11:32 14,6 C 15,6 C 99 % 1020,9 hPa 0,0 l/m 0 min 0 min 0,0 UV-I 0 W/m 13,6 km/h (3 Bft)
01.09.2014 11:34 14,7 C 15,6 C 99 % 1020,9 hPa 0,0 l/m 0 min 0 min 0,0 UV-I 0 W/m 10,9 km/h (2 Bft)
01.09.2014 11:36 14,8 C 16,1 C 99 % 1021,0 hPa 0,0 l/m 0 min 0 min 0,0 UV-I 0 W/m 8,2 km/h (2 Bft)
01.09.2014 11:38 14,9 C 16,1 C 99 % 1021,0 hPa 0,0 l/m 0 min 0 min 0,0 UV-I 0 W/m 21,7 km/h (4 Bft)
01.09.2014 11:40 15,0 C 16,1 C 99 % 1020,9 hPa 0,0 l/m 0 min 0 min 0,0 UV-I 0 W/m 24,4 km/h (4 Bft)
01.09.2014 11:42 15,2 C 16,7 C 99 % 1020,9 hPa 0,0 l/m 0 min 0 min 0,0 UV-I 0 W/m 16,4 km/h (3 Bft)
01.09.2014 11:44 15,3 C 16,7 C 99 % 1020,9 hPa 0,0 l/m 0 min 0 min 0,0 UV-I 0 W/m 16,4 km/h (3 Bft)
01.09.2014 11:46 15,4 C 16,7 C 100 % 1021,0 hPa 0,0 l/m 0 min 0 min 0,0 UV-I 0 W/m 16,4 km/h (3 Bft)
01.09.2014 11:48 15,6 C 17,2 C 100 % 1020,9 hPa 0,0 l/m 0 min 0 min 0,0 UV-I 0 W/m 13,6 km/h (3 Bft)
01.09.2014 11:50 15,7 C 17,2 C 100 % 1020,9 hPa 0,0 l/m 0 min 0 min 0,0 UV-I 0 W/m 16,4 km/h (3 Bft)
01.09.2014 11:52 15,8 C 16,7 C 100 % 1020,9 hPa 0,0 l/m 0 min 0 min 0,0 UV-I 0 W/m 13,6 km/h (3 Bft)
01.09.2014 11:54 15,9 C 16,7 C 100 % 1020,9 hPa 0,0 l/m 0 min 0 min 0,0 UV-I 0 W/m 13,6 km/h (3 Bft)
01.09.2014 11:56 16,1 C 16,7 C 99 % 1020,9 hPa 0,0 l/m 0 min 0 min 0,0 UV-I 0 W/m 2,7 km/h (1 Bft)
01.09.2014 11:58 16,2 C 16,7 C 100 % 1020,9 hPa 0,0 l/m 0 min 0 min 0,0 UV-I 0 W/m 0,0 km/h (0 Bft)
01.09.2014 12:00 16,3 C 16,7 C 100 % 1020,9 hPa 0,0 l/m 0 min 0 min 0,0 UV-I 0 W/m 2,7 km/h (1 Bft)
01.09.2014 12:02 16,4 C 16,7 C 99 % 1020,8 hPa 0,0 l/m 0 min 0 min 0,0 UV-I 0 W/m 2,7 km/h (1 Bft)
01.09.2014 12:05 16,4 C 16,7 C 99 % 1020,9 hPa 0,0 l/m 0 min 0 min 0,0 UV-I 0 W/m 13,6 km/h (3 Bft)
01.09.2014 12:06 16,4 C 16,7 C 99 % 1020,9 hPa 0,0 l/m 0 min 0 min 0,0 UV-I 0 W/m 13,6 km/h (3 Bft)
01.09.2014 12:08 16,4 C 16,7 C 99 % 1020,9 hPa 0,0 l/m 0 min 0 min 0,0 UV-I 0 W/m 2,7 km/h (1 Bft)
01.09.2014 12:10 16,4 C 16,7 C 99 % 1020,8 hPa 0,0 l/m 0 min 0 min 0,0 UV-I 0 W/m 2,7 km/h (1 Bft)
01.09.2014 12:12 16,4 C 16,7 C 99 % 1020,8 hPa 0,0 l/m 0 min 0 min 0,0 UV-I 0 W/m 10,9 km/h (2 Bft)
01.09.2014 12:14 16,4 C 16,1 C 99 % 1020,8 hPa 0,0 l/m 0 min 0 min 0,0 UV-I 0 W/m 5,5 km/h (1 Bft)
01.09.2014 12:16 16,4 C 16,1 C 99 % 1020,8 hPa 0,0 l/m 0 min 0 min 0,0 UV-I 0 W/m 8,2 km/h (2 Bft)
01.09.2014 12:18 16,4 C 16,1 C 99 % 1020,9 hPa 0,0 l/m 0 min 0 min 0,0 UV-I 0 W/m 10,9 km/h (2 Bft)
01.09.2014 12:20 16,4 C 16,7 C 99 % 1021,0 hPa 0,0 l/m 0 min 0 min 0,0 UV-I 0 W/m 10,9 km/h (2 Bft)
01.09.2014 12:22 16,5 C 16,7 C 99 % 1020,9 hPa 0,0 l/m 0 min 0 min 0,0 UV-I 0 W/m 13,6 km/h (3 Bft)
01.09.2014 12:24 16,6 C 17,2 C 99 % 1020,8 hPa 0,0 l/m 0 min 0 min 0,0 UV-I 0 W/m 2,7 km/h (1 Bft)
01.09.2014 12:26 16,8 C 17,8 C 99 % 1020,8 hPa 0,0 l/m 0 min 0 min 0,0 UV-I 0 W/m 13,6 km/h (3 Bft)
01.09.2014 12:28 16,9 C 17,8 C 99 % 1020,8 hPa 0,0 l/m 0 min 0 min 0,0 UV-I 0 W/m 10,9 km/h (2 Bft)
01.09.2014 12:30 17,0 C 18,3 C 99 % 1020,7 hPa 0,0 l/m 0 min 0 min 0,0 UV-I 0 W/m 16,4 km/h (3 Bft)
01.09.2014 12:32 17,2 C 18,3 C 98 % 1020,8 hPa 0,0 l/m 0 min 0 min 0,0 UV-I 0 W/m 10,9 km/h (2 Bft)
01.09.2014 12:34 17,2 C 18,3 C 98 % 1020,8 hPa 0,0 l/m 0 min 0 min 0,0 UV-I 0 W/m 13,6 km/h (3 Bft)
01.09.2014 12:36 17,3 C 17,8 C 98 % 1020,7 hPa 0,0 l/m 0 min 0 min 0,0 UV-I 0 W/m 5,5 km/h (1 Bft)
01.09.2014 12:38 17,4 C 17,8 C 97 % 1020,8 hPa 0,0 l/m 0 min 0 min 0,0 UV-I 0 W/m 2,7 km/h (1 Bft)
01.09.2014 12:40 17,5 C 17,2 C 96 % 1020,8 hPa 0,0 l/m 0 min 0 min 0,0 UV-I 0 W/m 0,0 km/h (0 Bft)
01.09.2014 12:42 17,5 C 16,7 C 95 % 1020,8 hPa 0,0 l/m 0 min 0 min 0,0 UV-I 0 W/m 19,0 km/h (3 Bft)
01.09.2014 12:44 17,5 C 16,7 C 93 % 1020,8 hPa 0,0 l/m 0 min 0 min 0,0 UV-I 0 W/m 16,4 km/h (3 Bft)
01.09.2014 12:46 17,6 C 16,7 C 92 % 1020,8 hPa 0,0 l/m 0 min 0 min 0,0 UV-I 0 W/m 8,2 km/h (2 Bft)
01.09.2014 12:48 17,7 C 17,2 C 91 % 1020,8 hPa 0,0 l/m 0 min 0 min 0,0 UV-I 0 W/m 10,9 km/h (2 Bft)
01.09.2014 12:50 17,8 C 17,8 C 90 % 1020,8 hPa 0,0 l/m 0 min 0 min 0,0 UV-I 0 W/m 8,2 km/h (2 Bft)
01.09.2014 12:52 17,9 C 18,3 C 89 % 1020,8 hPa 0,0 l/m 0 min 0 min 0,0 UV-I 0 W/m 13,6 km/h (3 Bft)
01.09.2014 12:54 18,0 C 17,8 C 88 % 1020,8 hPa 0,0 l/m 0 min 0 min 0,0 UV-I 0 W/m 13,6 km/h (3 Bft)
01.09.2014 12:56 18,1 C 17,8 C 86 % 1020,8 hPa 0,0 l/m 0 min 0 min 0,0 UV-I 0 W/m 21,7 km/h (4 Bft)
01.09.2014 12:58 18,2 C 17,2 C 85 % 1020,8 hPa 0,0 l/m 0 min 0 min 0,0 UV-I 0 W/m 19,0 km/h (3 Bft)
01.09.2014 13:00 18,2 C 17,2 C 84 % 1020,9 hPa 0,0 l/m 0 min 0 min 0,0 UV-I 0 W/m 16,4 km/h (3 Bft)
01.09.2014 13:02 18,2 C 16,7 C 83 % 1020,8 hPa 0,0 l/m 0 min 0 min 0,0 UV-I 0 W/m 10,9 km/h (2 Bft)
01.09.2014 13:04 18,3 C 17,2 C 82 % 1020,8 hPa 0,0 l/m 0 min 0 min 0,0 UV-I 0 W/m 16,4 km/h (3 Bft)
01.09.2014 13:06 18,3 C 17,2 C 82 % 1020,7 hPa 0,0 l/m 0 min 0 min 0,0 UV-I 0 W/m 8,2 km/h (2 Bft)
01.09.2014 13:08 18,3 C 17,8 C 82 % 1020,7 hPa 0,0 l/m 0 min 0 min 0,0 UV-I 0 W/m 16,4 km/h (3 Bft)
01.09.2014 13:10 18,4 C 17,2 C 82 % 1020,7 hPa 0,0 l/m 0 min 0 min 0,0 UV-I 0 W/m 16,4 km/h (3 Bft)
01.09.2014 13:12 18,4 C 17,2 C 82 % 1020,7 hPa 0,0 l/m 0 min 0 min 0,0 UV-I 0 W/m 13,6 km/h (3 Bft)
01.09.2014 13:14 18,4 C 16,7 C 82 % 1020,7 hPa 0,0 l/m 0 min 0 min 0,0 UV-I 0 W/m 10,9 km/h (2 Bft)
01.09.2014 13:16 18,4 C 16,7 C 82 % 1020,7 hPa 0,0 l/m 0 min 0 min 0,0 UV-I 0 W/m 5,5 km/h (1 Bft)
01.09.2014 13:18 18,4 C 16,7 C 82 % 1020,7 hPa 0,0 l/m 0 min 0 min 0,0 UV-I 0 W/m 13,6 km/h (3 Bft)
01.09.2014 13:20 18,4 C 17,2 C 82 % 1020,6 hPa 0,0 l/m 0 min 0 min 0,0 UV-I 0 W/m 10,9 km/h (2 Bft)
01.09.2014 13:22 18,5 C 17,2 C 82 % 1020,6 hPa 0,0 l/m 0 min 0 min 0,0 UV-I 0 W/m 8,2 km/h (2 Bft)
01.09.2014 13:24 18,6 C 17,8 C 82 % 1020,6 hPa 0,0 l/m 0 min 0 min 0,0 UV-I 0 W/m 2,7 km/h (1 Bft)
01.09.2014 13:26 18,7 C 17,8 C 81 % 1020,6 hPa 0,0 l/m 0 min 0 min 0,0 UV-I 0 W/m 0,0 km/h (0 Bft)
01.09.2014 13:28 18,7 C 17,8 C 80 % 1020,6 hPa 0,0 l/m 0 min 0 min 0,0 UV-I 0 W/m 2,7 km/h (1 Bft)
01.09.2014 13:30 18,9 C 18,3 C 79 % 1020,6 hPa 0,0 l/m 0 min 0 min 0,0 UV-I 0 W/m 0,0 km/h (0 Bft)
01.09.2014 13:32 19,0 C 18,3 C 80 % 1020,6 hPa 0,0 l/m 0 min 0 min 0,0 UV-I 0 W/m 0,0 km/h (0 Bft)
01.09.2014 13:34 19,1 C 18,3 C 79 % 1020,6 hPa 0,0 l/m 0 min 0 min 0,0 UV-I 0 W/m 0,0 km/h (0 Bft)
01.09.2014 13:36 19,2 C 17,8 C 79 % 1020,6 hPa 0,0 l/m 0 min 0 min 0,0 UV-I 0 W/m 0,0 km/h (0 Bft)
01.09.2014 13:38 19,2 C 17,8 C 77 % 1020,6 hPa 0,0 l/m 0 min 0 min 0,0 UV-I 0 W/m 0,0 km/h (0 Bft)
01.09.2014 13:40 19,2 C 17,8 C 78 % 1020,6 hPa 0,0 l/m 0 min 0 min 0,0 UV-I 0 W/m 0,0 km/h (0 Bft)
01.09.2014 13:42 19,3 C 17,8 C 77 % 1020,6 hPa 0,0 l/m 0 min 0 min 0,0 UV-I 0 W/m 2,7 km/h (1 Bft)
01.09.2014 13:44 19,3 C 17,8 C 77 % 1020,6 hPa 0,0 l/m 0 min 0 min 0,0 UV-I 0 W/m 13,6 km/h (3 Bft)
01.09.2014 13:46 19,3 C 17,8 C 76 % 1020,6 hPa 0,0 l/m 0 min 0 min 0,0 UV-I 0 W/m 2,7 km/h (1 Bft)
01.09.2014 13:48 19,3 C 17,8 C 77 % 1020,6 hPa 0,0 l/m 0 min 0 min 0,0 UV-I 0 W/m 0,0 km/h (0 Bft)
01.09.2014 13:50 19,3 C 17,8 C 78 % 1020,6 hPa 0,0 l/m 0 min 0 min 0,0 UV-I 0 W/m 0,0 km/h (0 Bft)
01.09.2014 13:52 19,3 C 17,8 C 77 % 1020,6 hPa 0,0 l/m 0 min 0 min 0,0 UV-I 0 W/m 13,6 km/h (3 Bft)
01.09.2014 13:54 19,3 C 17,8 C 78 % 1020,5 hPa 0,0 l/m 0 min 0 min 0,0 UV-I 0 W/m 10,9 km/h (2 Bft)
01.09.2014 13:56 19,3 C 17,8 C 77 % 1020,5 hPa 0,0 l/m 0 min 0 min 0,0 UV-I 0 W/m 2,7 km/h (1 Bft)
01.09.2014 13:58 19,3 C 17,2 C 77 % 1020,6 hPa 0,0 l/m 0 min 0 min 0,0 UV-I 0 W/m 0,0 km/h (0 Bft)
01.09.2014 14:00 19,3 C 17,2 C 76 % 1020,5 hPa 0,0 l/m 0 min 0 min 0,0 UV-I 0 W/m 0,0 km/h (0 Bft)
01.09.2014 14:02 19,2 C 16,7 C 77 % 1020,5 hPa 0,0 l/m 0 min 0 min 0,0 UV-I 0 W/m 0,0 km/h (0 Bft)
01.09.2014 14:04 19,2 C 16,7 C 77 % 1020,5 hPa 0,0 l/m 0 min 0 min 0,0 UV-I 0 W/m 0,0 km/h (0 Bft)
01.09.2014 14:06 19,2 C 16,7 C 77 % 1020,5 hPa 0,0 l/m 0 min 0 min 0,0 UV-I 0 W/m 8,2 km/h (2 Bft)
01.09.2014 14:08 19,1 C 16,7 C 78 % 1020,5 hPa 0,0 l/m 0 min 0 min 0,0 UV-I 0 W/m 16,4 km/h (3 Bft)
01.09.2014 14:10 19,1 C 16,1 C 77 % 1020,5 hPa 0,0 l/m 0 min 0 min 0,0 UV-I 0 W/m 13,6 km/h (3 Bft)
01.09.2014 14:12 19,0 C 16,1 C 78 % 1020,5 hPa 0,0 l/m 0 min 0 min 0,0 UV-I 0 W/m 13,6 km/h (3 Bft)
01.09.2014 14:14 18,9 C 16,1 C 78 % 1020,5 hPa 0,0 l/m 0 min 0 min 0,0 UV-I 0 W/m 13,6 km/h (3 Bft)
01.09.2014 14:16 18,9 C 16,1 C 78 % 1020,5 hPa 0,0 l/m 0 min 0 min 0,0 UV-I 0 W/m 13,6 km/h (3 Bft)
01.09.2014 14:18 18,8 C 16,1 C 78 % 1020,5 hPa 0,0 l/m 0 min 0 min 0,0 UV-I 0 W/m 13,6 km/h (3 Bft)
01.09.2014 14:20 18,7 C 16,1 C 79 % 1020,6 hPa 0,0 l/m 0 min 0 min 0,0 UV-I 0 W/m 2,7 km/h (1 Bft)
01.09.2014 14:22 18,7 C 16,1 C 79 % 1020,5 hPa 0,0 l/m 0 min 0 min 0,0 UV-I 0 W/m 2,7 km/h (1 Bft)
01.09.2014 14:24 18,6 C 16,1 C 79 % 1020,6 hPa 0,0 l/m 0 min 0 min 0,0 UV-I 0 W/m 10,9 km/h (2 Bft)
01.09.2014 14:26 18,6 C 16,1 C 79 % 1020,6 hPa 0,0 l/m 0 min 0 min 0,0 UV-I 0 W/m 16,4 km/h (3 Bft)
01.09.2014 14:28 18,4 C 16,1 C 79 % 1020,5 hPa 0,0 l/m 0 min 0 min 0,0 UV-I 0 W/m 8,2 km/h (2 Bft)
01.09.2014 14:30 18,4 C 16,1 C 80 % 1020,5 hPa 0,0 l/m 0 min 0 min 0,0 UV-I 0 W/m 8,2 km/h (2 Bft)
01.09.2014 14:32 18,3 C 16,1 C 80 % 1020,5 hPa 0,0 l/m 0 min 0 min 0,0 UV-I 0 W/m 0,0 km/h (0 Bft)
01.09.2014 14:34 18,3 C 16,1 C 80 % 1020,5 hPa 0,0 l/m 0 min 0 min 0,0 UV-I 0 W/m 10,9 km/h (2 Bft)
01.09.2014 14:36 18,2 C 16,1 C 80 % 1020,5 hPa 0,0 l/m 0 min 0 min 0,0 UV-I 0 W/m 13,6 km/h (3 Bft)
01.09.2014 14:38 18,2 C 16,1 C 81 % 1020,6 hPa 0,0 l/m 0 min 0 min 0,0 UV-I 0 W/m 10,9 km/h (2 Bft)
01.09.2014 14:40 18,2 C 16,1 C 81 % 1020,6 hPa 0,0 l/m 0 min 0 min 0,0 UV-I 0 W/m 0,0 km/h (0 Bft)
01.09.2014 14:42 18,1 C 16,1 C 81 % 1020,6 hPa 0,0 l/m 0 min 0 min 0,0 UV-I 0 W/m 5,5 km/h (1 Bft)
01.09.2014 14:44 18,1 C 16,1 C 80 % 1020,6 hPa 0,0 l/m 0 min 0 min 0,0 UV-I 0 W/m 10,9 km/h (2 Bft)
01.09.2014 14:46 18,1 C 16,7 C 80 % 1020,5 hPa 0,0 l/m 0 min 0 min 0,0 UV-I 0 W/m 2,7 km/h (1 Bft)
01.09.2014 14:48 18,0 C 16,7 C 80 % 1020,5 hPa 0,0 l/m 0 min 0 min 0,0 UV-I 0 W/m 0,0 km/h (0 Bft)
01.09.2014 14:50 18,0 C 16,7 C 80 % 1020,5 hPa 0,0 l/m 0 min 0 min 0,0 UV-I 0 W/m 10,9 km/h (2 Bft)
01.09.2014 14:52 18,0 C 16,7 C 81 % 1020,6 hPa 0,0 l/m 0 min 0 min 0,0 UV-I 0 W/m 2,7 km/h (1 Bft)
01.09.2014 14:54 18,1 C 17,2 C 82 % 1020,5 hPa 0,0 l/m 0 min 0 min 0,0 UV-I 0 W/m 0,0 km/h (0 Bft)
01.09.2014 14:56 18,1 C 17,2 C 82 % 1020,5 hPa 0,0 l/m 0 min 0 min 0,0 UV-I 0 W/m 0,0 km/h (0 Bft)
01.09.2014 14:58 18,1 C 17,8 C 82 % 1020,5 hPa 0,0 l/m 0 min 0 min 0,0 UV-I 0 W/m 2,7 km/h (1 Bft)
01.09.2014 15:00 18,1 C 17,8 C 82 % 1020,5 hPa 0,0 l/m 0 min 0 min 0,0 UV-I 0 W/m 10,9 km/h (2 Bft)
01.09.2014 15:02 18,1 C 17,8 C 81 % 1020,4 hPa 0,0 l/m 0 min 0 min 0,0 UV-I 0 W/m 0,0 km/h (0 Bft)
01.09.2014 15:04 18,1 C 18,3 C 81 % 1020,4 hPa 0,0 l/m 0 min 0 min 0,0 UV-I 0 W/m 2,7 km/h (1 Bft)
01.09.2014 15:06 18,1 C 18,9 C 80 % 1020,4 hPa 0,0 l/m 0 min 0 min 0,0 UV-I 0 W/m 0,0 km/h (0 Bft)
01.09.2014 15:08 18,1 C 18,9 C 80 % 1020,4 hPa 0,0 l/m 0 min 0 min 0,0 UV-I 0 W/m 0,0 km/h (0 Bft)
01.09.2014 15:10 18,2 C 18,9 C 81 % 1020,4 hPa 0,0 l/m 0 min 0 min 0,0 UV-I 0 W/m 0,0 km/h (0 Bft)
01.09.2014 15:12 18,2 C 18,9 C 80 % 1020,4 hPa 0,0 l/m 0 min 0 min 0,0 UV-I 0 W/m 0,0 km/h (0 Bft)
01.09.2014 15:14 18,3 C 19,4 C 80 % 1020,3 hPa 0,0 l/m 0 min 0 min 0,0 UV-I 0 W/m 0,0 km/h (0 Bft)
01.09.2014 15:16 18,3 C 19,4 C 79 % 1020,2 hPa 0,0 l/m 0 min 0 min 0,0 UV-I 0 W/m 0,0 km/h (0 Bft)
01.09.2014 15:18 18,3 C 18,9 C 78 % 1020,3 hPa 0,0 l/m 0 min 0 min 0,0 UV-I 0 W/m 0,0 km/h (0 Bft)
01.09.2014 15:20 18,4 C 18,9 C 78 % 1020,3 hPa 0,0 l/m 0 min 0 min 0,0 UV-I 0 W/m 0,0 km/h (0 Bft)
01.09.2014 15:22 18,5 C 18,9 C 79 % 1020,3 hPa 0,0 l/m 0 min 0 min 0,0 UV-I 0 W/m 0,0 km/h (0 Bft)
01.09.2014 15:24 18,6 C 19,4 C 80 % 1020,2 hPa 0,0 l/m 0 min 0 min 0,0 UV-I 0 W/m 2,7 km/h (1 Bft)
01.09.2014 15:26 18,8 C 20,6 C 80 % 1020,1 hPa 0,0 l/m 0 min 0 min 0,0 UV-I 0 W/m 0,0 km/h (0 Bft)
01.09.2014 15:28 18,8 C 20,6 C 78 % 1020,1 hPa 0,0 l/m 0 min 0 min 0,0 UV-I 0 W/m 10,9 km/h (2 Bft)
01.09.2014 15:30 18,9 C 20,6 C 78 % 1020,1 hPa 0,0 l/m 0 min 0 min 0,0 UV-I 0 W/m 13,6 km/h (3 Bft)
01.09.2014 15:32 19,0 C 20,0 C 77 % 1020,1 hPa 0,0 l/m 0 min 0 min 0,0 UV-I 0 W/m 19,0 km/h (3 Bft)
01.09.2014 15:34 19,1 C 20,0 C 76 % 1020,1 hPa 0,0 l/m 0 min 0 min 0,0 UV-I 0 W/m 13,6 km/h (3 Bft)
01.09.2014 15:36 19,2 C 20,6 C 76 % 1020,2 hPa 0,0 l/m 0 min 0 min 0,0 UV-I 0 W/m 2,7 km/h (1 Bft)
01.09.2014 15:38 19,3 C 20,6 C 76 % 1020,1 hPa 0,0 l/m 0 min 0 min 0,0 UV-I 0 W/m 8,2 km/h (2 Bft)
01.09.2014 15:40 19,4 C 20,6 C 75 % 1020,1 hPa 0,0 l/m 0 min 0 min 0,0 UV-I 0 W/m 0,0 km/h (0 Bft)
01.09.2014 15:42 19,6 C 20,6 C 74 % 1020,1 hPa 0,0 l/m 0 min 0 min 0,0 UV-I 0 W/m 13,6 km/h (3 Bft)
01.09.2014 15:44 19,7 C 20,0 C 73 % 1020,1 hPa 0,0 l/m 0 min 0 min 0,0 UV-I 0 W/m 13,6 km/h (3 Bft)
01.09.2014 15:46 19,8 C 20,0 C 74 % 1020,1 hPa 0,0 l/m 0 min 0 min 0,0 UV-I 0 W/m 16,4 km/h (3 Bft)
01.09.2014 15:48 19,9 C 19,4 C 73 % 1020,1 hPa 0,0 l/m 0 min 0 min 0,0 UV-I 0 W/m 13,6 km/h (3 Bft)
01.09.2014 15:50 19,9 C 19,4 C 73 % 1020,1 hPa 0,0 l/m 0 min 0 min 0,0 UV-I 0 W/m 13,6 km/h (3 Bft)
01.09.2014 15:52 20,0 C 18,9 C 73 % 1020,1 hPa 0,0 l/m 0 min 0 min 0,0 UV-I 0 W/m 21,7 km/h (4 Bft)
01.09.2014 15:54 20,0 C 18,9 C 72 % 1020,1 hPa 0,0 l/m 0 min 0 min 0,0 UV-I 0 W/m 21,7 km/h (4 Bft)
01.09.2014 15:56 20,0 C 18,3 C 72 % 1020,1 hPa 0,0 l/m 0 min 0 min 0,0 UV-I 0 W/m 19,0 km/h (3 Bft)
01.09.2014 15:58 20,0 C 18,3 C 72 % 1020,0 hPa 0,0 l/m 0 min 0 min 0,0 UV-I 0 W/m 19,0 km/h (3 Bft)
01.09.2014 16:00 20,0 C 18,3 C 73 % 1020,1 hPa 0,0 l/m 0 min 0 min 0,0 UV-I 0 W/m 13,6 km/h (3 Bft)
01.09.2014 16:02 19,9 C 18,3 C 73 % 1020,0 hPa 0,0 l/m 0 min 0 min 0,0 UV-I 0 W/m 13,6 km/h (3 Bft)
01.09.2014 16:04 19,9 C 18,3 C 73 % 1020,0 hPa 0,0 l/m 0 min 0 min 0,0 UV-I 0 W/m 16,4 km/h (3 Bft)
01.09.2014 16:06 19,9 C 18,3 C 73 % 1020,0 hPa 0,0 l/m 0 min 0 min 0,0 UV-I 0 W/m 10,9 km/h (2 Bft)
01.09.2014 16:08 19,9 C 18,3 C 73 % 1020,0 hPa 0,0 l/m 0 min 0 min 0,0 UV-I 0 W/m 10,9 km/h (2 Bft)
01.09.2014 16:10 19,9 C 18,9 C 74 % 1019,9 hPa 0,0 l/m 0 min 0 min 0,0 UV-I 0 W/m 16,4 km/h (3 Bft)
01.09.2014 16:12 19,8 C 18,9 C 74 % 1019,9 hPa 0,0 l/m 0 min 0 min 0,0 UV-I 0 W/m 13,6 km/h (3 Bft)
01.09.2014 16:14 19,8 C 18,9 C 74 % 1020,0 hPa 0,0 l/m 0 min 0 min 0,0 UV-I 0 W/m 10,9 km/h (2 Bft)
01.09.2014 16:16 19,8 C 19,4 C 74 % 1020,0 hPa 0,0 l/m 0 min 0 min 0,0 UV-I 0 W/m 13,6 km/h (3 Bft)
01.09.2014 16:18 19,9 C 19,4 C 74 % 1020,0 hPa 0,0 l/m 0 min 0 min 0,0 UV-I 0 W/m 8,2 km/h (2 Bft)
01.09.2014 16:20 19,9 C 19,4 C 74 % 1019,9 hPa 0,0 l/m 0 min 0 min 0,0 UV-I 0 W/m 5,5 km/h (1 Bft)
01.09.2014 16:22 19,9 C 20,0 C 74 % 1019,9 hPa 0,0 l/m 0 min 0 min 0,0 UV-I 0 W/m 2,7 km/h (1 Bft)
01.09.2014 16:24 19,9 C 19,4 C 73 % 1020,0 hPa 0,0 l/m 0 min 0 min 0,0 UV-I 0 W/m 2,7 km/h (1 Bft)
01.09.2014 16:26 19,9 C 20,0 C 74 % 1020,0 hPa 0,0 l/m 0 min 0 min 0,0 UV-I 0 W/m 10,9 km/h (2 Bft)
01.09.2014 16:28 20,0 C 20,0 C 74 % 1020,0 hPa 0,0 l/m 0 min 0 min 0,0 UV-I 0 W/m 10,9 km/h (2 Bft)
01.09.2014 16:30 20,1 C 20,0 C 74 % 1020,1 hPa 0,0 l/m 0 min 0 min 0,0 UV-I 0 W/m 13,6 km/h (3 Bft)
01.09.2014 16:32 20,1 C 20,0 C 74 % 1020,1 hPa 0,0 l/m 0 min 0 min 0,0 UV-I 0 W/m 10,9 km/h (2 Bft)
01.09.2014 16:34 20,2 C 20,6 C 74 % 1020,0 hPa 0,0 l/m 0 min 0 min 0,0 UV-I 0 W/m 10,9 km/h (2 Bft)
01.09.2014 16:36 20,2 C 20,6 C 73 % 1020,1 hPa 0,0 l/m 0 min 0 min 0,0 UV-I 0 W/m 10,9 km/h (2 Bft)
01.09.2014 16:38 20,2 C 20,6 C 74 % 1020,1 hPa 0,0 l/m 0 min 0 min 0,0 UV-I 0 W/m 13,6 km/h (3 Bft)
01.09.2014 16:40 20,3 C 20,6 C 74 % 1020,0 hPa 0,0 l/m 0 min 0 min 0,0 UV-I 0 W/m 13,6 km/h (3 Bft)
01.09.2014 16:42 20,3 C 20,0 C 73 % 1020,0 hPa 0,0 l/m 0 min 0 min 0,0 UV-I 0 W/m 10,9 km/h (2 Bft)
01.09.2014 16:44 20,3 C 20,0 C 71 % 1020,1 hPa 0,0 l/m 0 min 0 min 0,0 UV-I 0 W/m 13,6 km/h (3 Bft)
01.09.2014 16:46 20,3 C 20,0 C 71 % 1020,0 hPa 0,0 l/m 0 min 0 min 0,0 UV-I 0 W/m 16,4 km/h (3 Bft)
01.09.2014 16:48 20,3 C 19,4 C 70 % 1020,0 hPa 0,0 l/m 0 min 0 min 0,0 UV-I 0 W/m 21,7 km/h (4 Bft)
01.09.2014 16:50 20,3 C 19,4 C 72 % 1020,0 hPa 0,0 l/m 0 min 0 min 0,0 UV-I 0 W/m 16,4 km/h (3 Bft)
01.09.2014 16:52 20,3 C 19,4 C 71 % 1020,0 hPa 0,0 l/m 0 min 0 min 0,0 UV-I 0 W/m 13,6 km/h (3 Bft)
01.09.2014 16:54 20,3 C 19,4 C 71 % 1020,1 hPa 0,0 l/m 0 min 0 min 0,0 UV-I 0 W/m 13,6 km/h (3 Bft)
01.09.2014 16:56 20,3 C 19,4 C 72 % 1020,0 hPa 0,0 l/m 0 min 0 min 0,0 UV-I 0 W/m 19,0 km/h (3 Bft)
01.09.2014 16:58 20,3 C 18,9 C 72 % 1020,0 hPa 0,0 l/m 0 min 0 min 0,0 UV-I 0 W/m 13,6 km/h (3 Bft)
01.09.2014 17:00 20,2 C 18,9 C 72 % 1020,0 hPa 0,0 l/m 0 min 0 min 0,0 UV-I 0 W/m 8,2 km/h (2 Bft)
01.09.2014 17:02 20,3 C 19,4 C 73 % 1020,0 hPa 0,0 l/m 0 min 0 min 0,0 UV-I 0 W/m 13,6 km/h (3 Bft)
01.09.2014 17:04 20,2 C 19,4 C 73 % 1020,0 hPa 0,0 l/m 0 min 0 min 0,0 UV-I 0 W/m 8,2 km/h (2 Bft)
01.09.2014 17:06 20,2 C 19,4 C 71 % 1020,0 hPa 0,0 l/m 0 min 0 min 0,0 UV-I 0 W/m 2,7 km/h (1 Bft)
01.09.2014 17:08 20,2 C 18,9 C 71 % 1019,9 hPa 0,0 l/m 0 min 0 min 0,0 UV-I 0 W/m 0,0 km/h (0 Bft)
01.09.2014 17:10 20,2 C 19,4 C 71 % 1019,9 hPa 0,0 l/m 0 min 0 min 0,0 UV-I 0 W/m 0,0 km/h (0 Bft)
01.09.2014 17:12 20,2 C 18,9 C 71 % 1020,0 hPa 0,0 l/m 0 min 0 min 0,0 UV-I 0 W/m 0,0 km/h (0 Bft)
01.09.2014 17:14 20,2 C 18,9 C 72 % 1019,9 hPa 0,0 l/m 0 min 0 min 0,0 UV-I 0 W/m 0,0 km/h (0 Bft)
01.09.2014 17:16 20,2 C 18,9 C 72 % 1019,9 hPa 0,0 l/m 0 min 0 min 0,0 UV-I 0 W/m 0,0 km/h (0 Bft)
01.09.2014 17:18 20,2 C 18,9 C 72 % 1019,9 hPa 0,0 l/m 0 min 0 min 0,0 UV-I 0 W/m 0,0 km/h (0 Bft)
01.09.2014 17:20 20,2 C 18,9 C 73 % 1019,9 hPa 0,0 l/m 0 min 0 min 0,0 UV-I 0 W/m 0,0 km/h (0 Bft)
01.09.2014 17:22 20,2 C 18,3 C 73 % 1019,9 hPa 0,0 l/m 0 min 0 min 0,0 UV-I 0 W/m 0,0 km/h (0 Bft)
01.09.2014 17:24 20,2 C 18,3 C 73 % 1019,9 hPa 0,0 l/m 0 min 0 min 0,0 UV-I 0 W/m 0,0 km/h (0 Bft)
01.09.2014 17:26 20,2 C 18,3 C 73 % 1019,9 hPa 0,0 l/m 0 min 0 min 0,0 UV-I 0 W/m 5,5 km/h (1 Bft)
01.09.2014 17:28 20,1 C 18,3 C 73 % 1019,9 hPa 0,0 l/m 0 min 0 min 0,0 UV-I 0 W/m 0,0 km/h (0 Bft)
01.09.2014 17:30 20,1 C 18,3 C 74 % 1019,9 hPa 0,0 l/m 0 min 0 min 0,0 UV-I 0 W/m 0,0 km/h (0 Bft)
01.09.2014 17:32 20,1 C 18,3 C 74 % 1019,9 hPa 0,0 l/m 0 min 0 min 0,0 UV-I 0 W/m 2,7 km/h (1 Bft)
01.09.2014 17:34 20,1 C 17,8 C 74 % 1019,9 hPa 0,0 l/m 0 min 0 min 0,0 UV-I 0 W/m 13,6 km/h (3 Bft)
01.09.2014 17:36 20,1 C 17,8 C 74 % 1019,9 hPa 0,0 l/m 0 min 0 min 0,0 UV-I 0 W/m 10,9 km/h (2 Bft)
01.09.2014 17:38 20,0 C 17,8 C 74 % 1019,9 hPa 0,0 l/m 0 min 0 min 0,0 UV-I 0 W/m 10,9 km/h (2 Bft)
01.09.2014 17:40 20,0 C 17,8 C 74 % 1019,9 hPa 0,0 l/m 0 min 0 min 0,0 UV-I 0 W/m 5,5 km/h (1 Bft)
01.09.2014 17:42 19,9 C 17,8 C 73 % 1019,9 hPa 0,0 l/m 0 min 0 min 0,0 UV-I 0 W/m 2,7 km/h (1 Bft)
01.09.2014 17:44 19,9 C 17,8 C 73 % 1019,9 hPa 0,0 l/m 0 min 0 min 0,0 UV-I 0 W/m 13,6 km/h (3 Bft)
01.09.2014 17:46 19,9 C 17,8 C 73 % 1019,9 hPa 0,0 l/m 0 min 0 min 0,0 UV-I 0 W/m 2,7 km/h (1 Bft)
01.09.2014 17:48 19,8 C 17,8 C 73 % 1019,9 hPa 0,0 l/m 0 min 0 min 0,0 UV-I 0 W/m 8,2 km/h (2 Bft)
01.09.2014 17:50 19,8 C 17,2 C 73 % 1019,9 hPa 0,0 l/m 0 min 0 min 0,0 UV-I 0 W/m 8,2 km/h (2 Bft)
01.09.2014 17:52 19,8 C 17,2 C 73 % 1019,9 hPa 0,0 l/m 0 min 0 min 0,0 UV-I 0 W/m 0,0 km/h (0 Bft)
01.09.2014 17:54 19,7 C 17,2 C 73 % 1019,9 hPa 0,0 l/m 0 min 0 min 0,0 UV-I 0 W/m 0,0 km/h (0 Bft)
01.09.2014 17:56 19,7 C 17,2 C 73 % 1020,0 hPa 0,0 l/m 0 min 0 min 0,0 UV-I 0 W/m 2,7 km/h (1 Bft)
01.09.2014 17:58 19,7 C 17,2 C 73 % 1020,0 hPa 0,0 l/m 0 min 0 min 0,0 UV-I 0 W/m 0,0 km/h (0 Bft)
01.09.2014 18:00 19,7 C 17,2 C 73 % 1020,0 hPa 0,0 l/m 0 min 0 min 0,0 UV-I 0 W/m 0,0 km/h (0 Bft)
01.09.2014 18:02 19,6 C 17,2 C 73 % 1020,0 hPa 0,0 l/m 0 min 0 min 0,0 UV-I 0 W/m 0,0 km/h (0 Bft)
01.09.2014 18:06 19,6 C 17,2 C 73 % 1019,9 hPa 0,0 l/m 0 min 0 min 0,0 UV-I 0 W/m 2,7 km/h (1 Bft)
01.09.2014 18:08 19,5 C 17,8 C 73 % 1019,9 hPa 0,0 l/m 0 min 0 min 0,0 UV-I 0 W/m 0,0 km/h (0 Bft)
01.09.2014 18:10 19,5 C 17,8 C 73 % 1019,9 hPa 0,0 l/m 0 min 0 min 0,0 UV-I 0 W/m 0,0 km/h (0 Bft)
01.09.2014 18:12 19,5 C 17,8 C 74 % 1019,9 hPa 0,0 l/m 0 min 0 min 0,0 UV-I 0 W/m 0,0 km/h (0 Bft)
01.09.2014 18:14 19,5 C 17,8 C 74 % 1019,9 hPa 0,0 l/m 0 min 0 min 0,0 UV-I 0 W/m 2,7 km/h (1 Bft)
01.09.2014 18:16 19,4 C 17,8 C 74 % 1019,9 hPa 0,0 l/m 0 min 0 min 0,0 UV-I 0 W/m 0,0 km/h (0 Bft)
01.09.2014 18:18 19,4 C 17,8 C 74 % 1019,9 hPa 0,0 l/m 0 min 0 min 0,0 UV-I 0 W/m 0,0 km/h (0 Bft)
01.09.2014 18:20 19,4 C 17,8 C 75 % 1020,0 hPa 0,0 l/m 0 min 0 min 0,0 UV-I 0 W/m 0,0 km/h (0 Bft)
01.09.2014 18:22 19,4 C 17,8 C 75 % 1020,0 hPa 0,0 l/m 0 min 0 min 0,0 UV-I 0 W/m 0,0 km/h (0 Bft)
01.09.2014 18:24 19,4 C 17,2 C 75 % 1020,0 hPa 0,0 l/m 0 min 0 min 0,0 UV-I 0 W/m 0,0 km/h (0 Bft)
01.09.2014 18:26 19,4 C 17,2 C 76 % 1020,0 hPa 0,0 l/m 0 min 0 min 0,0 UV-I 0 W/m 0,0 km/h (0 Bft)
01.09.2014 18:28 19,4 C 17,8 C 76 % 1019,9 hPa 0,0 l/m 0 min 0 min 0,0 UV-I 0 W/m 0,0 km/h (0 Bft)
01.09.2014 18:30 19,3 C 17,8 C 75 % 1019,9 hPa 0,0 l/m 0 min 0 min 0,0 UV-I 0 W/m 2,7 km/h (1 Bft)
01.09.2014 18:32 19,3 C 17,8 C 75 % 1019,9 hPa 0,0 l/m 0 min 0 min 0,0 UV-I 0 W/m 2,7 km/h (1 Bft)
01.09.2014 18:34 19,3 C 17,8 C 75 % 1020,0 hPa 0,0 l/m 0 min 0 min 0,0 UV-I 0 W/m 0,0 km/h (0 Bft)
01.09.2014 18:36 19,3 C 17,8 C 75 % 1019,9 hPa 0,0 l/m 0 min 0 min 0,0 UV-I 0 W/m 2,7 km/h (1 Bft)
01.09.2014 18:38 19,2 C 17,8 C 76 % 1020,0 hPa 0,0 l/m 0 min 0 min 0,0 UV-I 0 W/m 0,0 km/h (0 Bft)
01.09.2014 18:40 19,2 C 17,8 C 76 % 1020,0 hPa 0,0 l/m 0 min 0 min 0,0 UV-I 0 W/m 0,0 km/h (0 Bft)
01.09.2014 18:42 19,2 C 17,8 C 76 % 1019,9 hPa 0,0 l/m 0 min 0 min 0,0 UV-I 0 W/m 0,0 km/h (0 Bft)
01.09.2014 18:44 19,2 C 17,8 C 76 % 1020,0 hPa 0,0 l/m 0 min 0 min 0,0 UV-I 0 W/m 0,0 km/h (0 Bft)
01.09.2014 18:46 19,2 C 17,8 C 75 % 1019,9 hPa 0,0 l/m 0 min 0 min 0,0 UV-I 0 W/m 0,0 km/h (0 Bft)
01.09.2014 18:48 19,2 C 17,8 C 75 % 1019,9 hPa 0,0 l/m 0 min 0 min 0,0 UV-I 0 W/m 0,0 km/h (0 Bft)
01.09.2014 18:50 19,2 C 17,2 C 75 % 1019,8 hPa 0,0 l/m 0 min 0 min 0,0 UV-I 0 W/m 0,0 km/h (0 Bft)
01.09.2014 18:52 19,2 C 17,2 C 76 % 1019,8 hPa 0,0 l/m 0 min 0 min 0,0 UV-I 0 W/m 0,0 km/h (0 Bft)
01.09.2014 18:54 19,2 C 17,2 C 76 % 1019,8 hPa 0,0 l/m 0 min 0 min 0,0 UV-I 0 W/m 0,0 km/h (0 Bft)
01.09.2014 18:56 19,2 C 16,7 C 76 % 1019,8 hPa 0,0 l/m 0 min 0 min 0,0 UV-I 0 W/m 0,0 km/h (0 Bft)
01.09.2014 18:58 19,2 C 16,7 C 76 % 1019,9 hPa 0,0 l/m 0 min 0 min 0,0 UV-I 0 W/m 0,0 km/h (0 Bft)
01.09.2014 19:00 19,1 C 16,1 C 76 % 1019,8 hPa 0,0 l/m 0 min 0 min 0,0 UV-I 0 W/m 0,0 km/h (0 Bft)
01.09.2014 19:02 19,1 C 16,1 C 76 % 1019,9 hPa 0,0 l/m 0 min 0 min 0,0 UV-I 0 W/m 0,0 km/h (0 Bft)
01.09.2014 19:04 19,1 C 16,1 C 77 % 1019,9 hPa 0,0 l/m 0 min 0 min 0,0 UV-I 0 W/m 0,0 km/h (0 Bft)
01.09.2014 19:06 19,1 C 16,1 C 77 % 1019,9 hPa 0,0 l/m 0 min 0 min 0,0 UV-I 0 W/m 0,0 km/h (0 Bft)
01.09.2014 19:08 19,1 C 15,6 C 78 % 1019,9 hPa 0,0 l/m 0 min 0 min 0,0 UV-I 0 W/m 0,0 km/h (0 Bft)
01.09.2014 19:10 19,1 C 15,6 C 78 % 1019,9 hPa 0,0 l/m 0 min 0 min 0,0 UV-I 0 W/m 0,0 km/h (0 Bft)
01.09.2014 19:12 19,1 C 15,6 C 79 % 1019,9 hPa 0,0 l/m 0 min 0 min 0,0 UV-I 0 W/m 0,0 km/h (0 Bft)
01.09.2014 19:14 19,0 C 15,6 C 79 % 1019,9 hPa 0,0 l/m 0 min 0 min 0,0 UV-I 0 W/m 0,0 km/h (0 Bft)
01.09.2014 19:16 19,0 C 15,6 C 80 % 1019,9 hPa 0,0 l/m 0 min 0 min 0,0 UV-I 0 W/m 0,0 km/h (0 Bft)
01.09.2014 19:18 18,9 C 15,6 C 80 % 1019,9 hPa 0,0 l/m 0 min 0 min 0,0 UV-I 0 W/m 0,0 km/h (0 Bft)
01.09.2014 19:20 18,9 C 15,6 C 80 % 1019,9 hPa 0,0 l/m 0 min 0 min 0,0 UV-I 0 W/m 0,0 km/h (0 Bft)
01.09.2014 19:22 18,9 C 15,6 C 80 % 1019,9 hPa 0,0 l/m 0 min 0 min 0,0 UV-I 0 W/m 0,0 km/h (0 Bft)
01.09.2014 19:24 18,8 C 15,6 C 80 % 1019,9 hPa 0,0 l/m 0 min 0 min 0,0 UV-I 0 W/m 0,0 km/h (0 Bft)
01.09.2014 19:26 18,8 C 15,6 C 80 % 1019,9 hPa 0,0 l/m 0 min 0 min 0,0 UV-I 0 W/m 0,0 km/h (0 Bft)
01.09.2014 19:28 18,7 C 15,6 C 80 % 1019,9 hPa 0,0 l/m 0 min 0 min 0,0 UV-I 0 W/m 0,0 km/h (0 Bft)
01.09.2014 19:30 18,7 C 15,6 C 80 % 1019,9 hPa 0,0 l/m 0 min 0 min 0,0 UV-I 0 W/m 0,0 km/h (0 Bft)
01.09.2014 19:32 18,6 C 15,6 C 81 % 1019,9 hPa 0,0 l/m 0 min 0 min 0,0 UV-I 0 W/m 0,0 km/h (0 Bft)
01.09.2014 19:34 18,6 C 15,6 C 81 % 1019,9 hPa 0,0 l/m 0 min 0 min 0,0 UV-I 0 W/m 0,0 km/h (0 Bft)
01.09.2014 19:36 18,6 C 15,6 C 81 % 1019,9 hPa 0,0 l/m 0 min 0 min 0,0 UV-I 0 W/m 0,0 km/h (0 Bft)
01.09.2014 19:38 18,5 C 15,6 C 81 % 1019,9 hPa 0,0 l/m 0 min 0 min 0,0 UV-I 0 W/m 0,0 km/h (0 Bft)
01.09.2014 19:40 18,5 C 15,6 C 81 % 1019,9 hPa 0,0 l/m 0 min 0 min 0,0 UV-I 0 W/m 0,0 km/h (0 Bft)
01.09.2014 19:42 18,4 C 15,6 C 81 % 1019,9 hPa 0,0 l/m 0 min 0 min 0,0 UV-I 0 W/m 0,0 km/h (0 Bft)
01.09.2014 19:44 18,4 C 15,6 C 81 % 1019,9 hPa 0,0 l/m 0 min 0 min 0,0 UV-I 0 W/m 0,0 km/h (0 Bft)
01.09.2014 19:46 18,4 C 15,6 C 82 % 1019,9 hPa 0,0 l/m 0 min 0 min 0,0 UV-I 0 W/m 0,0 km/h (0 Bft)
01.09.2014 19:48 18,3 C 15,6 C 82 % 1019,9 hPa 0,0 l/m 0 min 0 min 0,0 UV-I 0 W/m 0,0 km/h (0 Bft)
01.09.2014 19:50 18,3 C 15,6 C 82 % 1019,9 hPa 0,0 l/m 0 min 0 min 0,0 UV-I 0 W/m 0,0 km/h (0 Bft)
01.09.2014 19:52 18,3 C 15,6 C 82 % 1019,9 hPa 0,0 l/m 0 min 0 min 0,0 UV-I 0 W/m 0,0 km/h (0 Bft)
01.09.2014 19:54 18,2 C 15,0 C 82 % 1019,9 hPa 0,0 l/m 0 min 0 min 0,0 UV-I 0 W/m 0,0 km/h (0 Bft)
01.09.2014 19:56 18,2 C 15,0 C 82 % 1020,0 hPa 0,0 l/m 0 min 0 min 0,0 UV-I 0 W/m 0,0 km/h (0 Bft)
01.09.2014 19:58 18,2 C 15,0 C 83 % 1020,0 hPa 0,0 l/m 0 min 0 min 0,0 UV-I 0 W/m 0,0 km/h (0 Bft)
01.09.2014 20:00 18,2 C 15,0 C 83 % 1020,0 hPa 0,0 l/m 0 min 0 min 0,0 UV-I 0 W/m 0,0 km/h (0 Bft)
01.09.2014 20:02 18,1 C 15,0 C 83 % 1020,0 hPa 0,0 l/m 0 min 0 min 0,0 UV-I 0 W/m 0,0 km/h (0 Bft)
01.09.2014 20:04 18,1 C 15,0 C 83 % 1020,0 hPa 0,0 l/m 0 min 0 min 0,0 UV-I 0 W/m 0,0 km/h (0 Bft)
01.09.2014 20:06 18,1 C 15,0 C 83 % 1020,0 hPa 0,0 l/m 0 min 0 min 0,0 UV-I 0 W/m 0,0 km/h (0 Bft)
01.09.2014 20:08 18,0 C 15,0 C 83 % 1020,0 hPa 0,0 l/m 0 min 0 min 0,0 UV-I 0 W/m 0,0 km/h (0 Bft)
01.09.2014 20:10 17,9 C 15,0 C 83 % 1020,1 hPa 0,0 l/m 0 min 0 min 0,0 UV-I 0 W/m 0,0 km/h (0 Bft)
01.09.2014 20:12 17,9 C 15,0 C 83 % 1020,0 hPa 0,0 l/m 0 min 0 min 0,0 UV-I 0 W/m 0,0 km/h (0 Bft)
01.09.2014 20:14 17,9 C 15,0 C 83 % 1020,1 hPa 0,0 l/m 0 min 0 min 0,0 UV-I 0 W/m 0,0 km/h (0 Bft)
01.09.2014 20:16 17,8 C 15,0 C 84 % 1020,1 hPa 0,0 l/m 0 min 0 min 0,0 UV-I 0 W/m 0,0 km/h (0 Bft)
01.09.2014 20:18 17,8 C 15,0 C 84 % 1020,0 hPa 0,0 l/m 0 min 0 min 0,0 UV-I 0 W/m 0,0 km/h (0 Bft)
01.09.2014 20:20 17,8 C 15,0 C 84 % 1020,0 hPa 0,0 l/m 0 min 0 min 0,0 UV-I 0 W/m 0,0 km/h (0 Bft)
01.09.2014 20:22 17,7 C 14,4 C 84 % 1020,0 hPa 0,0 l/m 0 min 0 min 0,0 UV-I 0 W/m 0,0 km/h (0 Bft)
01.09.2014 20:24 17,7 C 14,4 C 84 % 1020,0 hPa 0,0 l/m 0 min 0 min 0,0 UV-I 0 W/m 0,0 km/h (0 Bft)
01.09.2014 20:26 17,6 C 14,4 C 84 % 1020,0 hPa 0,0 l/m 0 min 0 min 0,0 UV-I 0 W/m 0,0 km/h (0 Bft)
01.09.2014 20:28 17,6 C 14,4 C 84 % 1020,0 hPa 0,0 l/m 0 min 0 min 0,0 UV-I 0 W/m 0,0 km/h (0 Bft)
01.09.2014 20:30 17,6 C 14,4 C 84 % 1020,0 hPa 0,0 l/m 0 min 0 min 0,0 UV-I 0 W/m 0,0 km/h (0 Bft)
01.09.2014 20:32 17,5 C 14,4 C 84 % 1019,9 hPa 0,0 l/m 0 min 0 min 0,0 UV-I 0 W/m 0,0 km/h (0 Bft)
01.09.2014 20:34 17,5 C 14,4 C 84 % 1020,0 hPa 0,0 l/m 0 min 0 min 0,0 UV-I 0 W/m 0,0 km/h (0 Bft)
01.09.2014 20:36 17,4 C 13,9 C 84 % 1020,0 hPa 0,0 l/m 0 min 0 min 0,0 UV-I 0 W/m 0,0 km/h (0 Bft)
01.09.2014 20:38 17,4 C 13,9 C 84 % 1020,0 hPa 0,0 l/m 0 min 0 min 0,0 UV-I 0 W/m 0,0 km/h (0 Bft)
01.09.2014 20:40 17,3 C 13,9 C 84 % 1020,1 hPa 0,0 l/m 0 min 0 min 0,0 UV-I 0 W/m 0,0 km/h (0 Bft)
01.09.2014 20:42 17,3 C 13,9 C 84 % 1020,1 hPa 0,0 l/m 0 min 0 min 0,0 UV-I 0 W/m 0,0 km/h (0 Bft)
01.09.2014 20:44 17,2 C 13,9 C 85 % 1020,1 hPa 0,0 l/m 0 min 0 min 0,0 UV-I 0 W/m 0,0 km/h (0 Bft)
01.09.2014 20:46 17,2 C 13,9 C 85 % 1020,1 hPa 0,0 l/m 0 min 0 min 0,0 UV-I 0 W/m 0,0 km/h (0 Bft)
01.09.2014 20:48 17,2 C 13,9 C 85 % 1020,1 hPa 0,0 l/m 0 min 0 min 0,0 UV-I 0 W/m 0,0 km/h (0 Bft)
01.09.2014 20:50 17,1 C 13,9 C 86 % 1020,1 hPa 0,0 l/m 0 min 0 min 0,0 UV-I 0 W/m 0,0 km/h (0 Bft)
01.09.2014 20:52 17,1 C 13,9 C 86 % 1020,1 hPa 0,0 l/m 0 min 0 min 0,0 UV-I 0 W/m 0,0 km/h (0 Bft)
01.09.2014 20:54 17,0 C 13,3 C 86 % 1020,1 hPa 0,0 l/m 0 min 0 min 0,0 UV-I 0 W/m 0,0 km/h (0 Bft)
01.09.2014 20:56 16,9 C 13,3 C 86 % 1020,1 hPa 0,0 l/m 0 min 0 min 0,0 UV-I 0 W/m 0,0 km/h (0 Bft)
01.09.2014 20:58 16,9 C 13,3 C 86 % 1020,1 hPa 0,0 l/m 0 min 0 min 0,0 UV-I 0 W/m 0,0 km/h (0 Bft)
01.09.2014 21:00 16,9 C 13,3 C 86 % 1020,1 hPa 0,0 l/m 0 min 0 min 0,0 UV-I 0 W/m 0,0 km/h (0 Bft)
01.09.2014 21:02 16,8 C 13,3 C 87 % 1020,1 hPa 0,0 l/m 0 min 0 min 0,0 UV-I 0 W/m 0,0 km/h (0 Bft)
01.09.2014 21:04 16,8 C 13,3 C 87 % 1020,1 hPa 0,0 l/m 0 min 0 min 0,0 UV-I 0 W/m 0,0 km/h (0 Bft)
01.09.2014 21:06 16,7 C 13,3 C 87 % 1020,1 hPa 0,0 l/m 0 min 0 min 0,0 UV-I 0 W/m 0,0 km/h (0 Bft)
01.09.2014 21:08 16,7 C 13,3 C 87 % 1020,1 hPa 0,0 l/m 0 min 0 min 0,0 UV-I 0 W/m 0,0 km/h (0 Bft)
01.09.2014 21:10 16,6 C 13,3 C 87 % 1020,1 hPa 0,0 l/m 0 min 0 min 0,0 UV-I 0 W/m 0,0 km/h (0 Bft)
01.09.2014 21:12 16,6 C 13,3 C 87 % 1020,1 hPa 0,0 l/m 0 min 0 min 0,0 UV-I 0 W/m 0,0 km/h (0 Bft)
01.09.2014 21:14 16,5 C 13,3 C 87 % 1020,3 hPa 0,0 l/m 0 min 0 min 0,0 UV-I 0 W/m 0,0 km/h (0 Bft)
01.09.2014 21:16 16,4 C 13,3 C 87 % 1020,3 hPa 0,0 l/m 0 min 0 min 0,0 UV-I 0 W/m 0,0 km/h (0 Bft)
01.09.2014 21:18 16,4 C 13,3 C 87 % 1020,3 hPa 0,0 l/m 0 min 0 min 0,0 UV-I 0 W/m 0,0 km/h (0 Bft)
01.09.2014 21:20 16,4 C 13,3 C 87 % 1020,3 hPa 0,0 l/m 0 min 0 min 0,0 UV-I 0 W/m 0,0 km/h (0 Bft)
01.09.2014 21:22 16,3 C 13,3 C 88 % 1020,3 hPa 0,0 l/m 0 min 0 min 0,0 UV-I 0 W/m 0,0 km/h (0 Bft)
01.09.2014 21:24 16,3 C 13,3 C 88 % 1020,3 hPa 0,0 l/m 0 min 0 min 0,0 UV-I 0 W/m 0,0 km/h (0 Bft)
01.09.2014 21:26 16,2 C 13,3 C 88 % 1020,3 hPa 0,0 l/m 0 min 0 min 0,0 UV-I 0 W/m 0,0 km/h (0 Bft)
01.09.2014 21:28 16,2 C 13,3 C 88 % 1020,2 hPa 0,0 l/m 0 min 0 min 0,0 UV-I 0 W/m 0,0 km/h (0 Bft)
01.09.2014 21:30 16,1 C 13,3 C 88 % 1020,2 hPa 0,0 l/m 0 min 0 min 0,0 UV-I 0 W/m 0,0 km/h (0 Bft)
01.09.2014 21:32 16,1 C 13,3 C 88 % 1020,3 hPa 0,0 l/m 0 min 0 min 0,0 UV-I 0 W/m 0,0 km/h (0 Bft)
01.09.2014 21:34 16,1 C 13,3 C 89 % 1020,2 hPa 0,0 l/m 0 min 0 min 0,0 UV-I 0 W/m 0,0 km/h (0 Bft)
01.09.2014 21:36 16,0 C 13,3 C 88 % 1020,3 hPa 0,0 l/m 0 min 0 min 0,0 UV-I 0 W/m 0,0 km/h (0 Bft)
01.09.2014 21:38 15,9 C 13,3 C 89 % 1020,2 hPa 0,0 l/m 0 min 0 min 0,0 UV-I 0 W/m 0,0 km/h (0 Bft)
01.09.2014 21:40 15,9 C 13,3 C 89 % 1020,1 hPa 0,0 l/m 0 min 0 min 0,0 UV-I 0 W/m 0,0 km/h (0 Bft)
01.09.2014 21:42 15,8 C 13,3 C 89 % 1020,1 hPa 0,0 l/m 0 min 0 min 0,0 UV-I 0 W/m 0,0 km/h (0 Bft)
01.09.2014 21:44 15,8 C 13,3 C 89 % 1020,2 hPa 0,0 l/m 0 min 0 min 0,0 UV-I 0 W/m 0,0 km/h (0 Bft)
01.09.2014 21:46 15,8 C 13,3 C 89 % 1020,2 hPa 0,0 l/m 0 min 0 min 0,0 UV-I 0 W/m 0,0 km/h (0 Bft)
01.09.2014 21:48 15,7 C 13,3 C 89 % 1020,2 hPa 0,0 l/m 0 min 0 min 0,0 UV-I 0 W/m 0,0 km/h (0 Bft)
01.09.2014 21:50 15,7 C 13,3 C 89 % 1020,3 hPa 0,0 l/m 0 min 0 min 0,0 UV-I 0 W/m 0,0 km/h (0 Bft)
01.09.2014 21:52 15,7 C 13,3 C 89 % 1020,2 hPa 0,0 l/m 0 min 0 min 0,0 UV-I 0 W/m 0,0 km/h (0 Bft)
01.09.2014 21:54 15,6 C 13,3 C 89 % 1020,3 hPa 0,0 l/m 0 min 0 min 0,0 UV-I 0 W/m 0,0 km/h (0 Bft)
01.09.2014 21:56 15,6 C 13,3 C 89 % 1020,4 hPa 0,0 l/m 0 min 0 min 0,0 UV-I 0 W/m 0,0 km/h (0 Bft)
01.09.2014 21:58 15,6 C 13,3 C 89 % 1020,3 hPa 0,0 l/m 0 min 0 min 0,0 UV-I 0 W/m 0,0 km/h (0 Bft)
01.09.2014 22:00 15,5 C 13,3 C 89 % 1020,4 hPa 0,0 l/m 0 min 0 min 0,0 UV-I 0 W/m 0,0 km/h (0 Bft)
01.09.2014 22:02 15,5 C 13,3 C 90 % 1020,3 hPa 0,0 l/m 0 min 0 min 0,0 UV-I 0 W/m 0,0 km/h (0 Bft)
01.09.2014 22:04 15,4 C 13,3 C 90 % 1020,3 hPa 0,0 l/m 0 min 0 min 0,0 UV-I 0 W/m 0,0 km/h (0 Bft)
01.09.2014 22:06 15,4 C 13,3 C 90 % 1020,3 hPa 0,0 l/m 0 min 0 min 0,0 UV-I 0 W/m 0,0 km/h (0 Bft)
01.09.2014 22:08 15,4 C 13,3 C 90 % 1020,4 hPa 0,0 l/m 0 min 0 min 0,0 UV-I 0 W/m 0,0 km/h (0 Bft)
01.09.2014 22:10 15,4 C 13,3 C 90 % 1020,3 hPa 0,0 l/m 0 min 0 min 0,0 UV-I 0 W/m 0,0 km/h (0 Bft)
01.09.2014 22:12 15,3 C 13,3 C 90 % 1020,4 hPa 0,0 l/m 0 min 0 min 0,0 UV-I 0 W/m 0,0 km/h (0 Bft)
01.09.2014 22:14 15,3 C 13,3 C 90 % 1020,3 hPa 0,0 l/m 0 min 0 min 0,0 UV-I 0 W/m 0,0 km/h (0 Bft)
01.09.2014 22:16 15,3 C 13,3 C 90 % 1020,3 hPa 0,0 l/m 0 min 0 min 0,0 UV-I 0 W/m 0,0 km/h (0 Bft)
01.09.2014 22:18 15,3 C 12,8 C 90 % 1020,4 hPa 0,0 l/m 0 min 0 min 0,0 UV-I 0 W/m 0,0 km/h (0 Bft)
01.09.2014 22:20 15,3 C 12,8 C 90 % 1020,4 hPa 0,0 l/m 0 min 0 min 0,0 UV-I 0 W/m 0,0 km/h (0 Bft)
01.09.2014 22:22 15,2 C 12,8 C 90 % 1020,5 hPa 0,0 l/m 0 min 0 min 0,0 UV-I 0 W/m 0,0 km/h (0 Bft)
01.09.2014 22:24 15,2 C 12,8 C 90 % 1020,5 hPa 0,0 l/m 0 min 0 min 0,0 UV-I 0 W/m 0,0 km/h (0 Bft)
01.09.2014 22:26 15,2 C 12,8 C 90 % 1020,5 hPa 0,0 l/m 0 min 0 min 0,0 UV-I 0 W/m 0,0 km/h (0 Bft)
01.09.2014 22:28 15,2 C 12,8 C 90 % 1020,6 hPa 0,0 l/m 0 min 0 min 0,0 UV-I 0 W/m 0,0 km/h (0 Bft)
01.09.2014 22:30 15,2 C 12,8 C 90 % 1020,5 hPa 0,0 l/m 0 min 0 min 0,0 UV-I 0 W/m 0,0 km/h (0 Bft)
01.09.2014 22:32 15,1 C 12,8 C 90 % 1020,5 hPa 0,0 l/m 0 min 0 min 0,0 UV-I 0 W/m 0,0 km/h (0 Bft)
01.09.2014 22:34 15,1 C 12,8 C 91 % 1020,5 hPa 0,0 l/m 0 min 0 min 0,0 UV-I 0 W/m 0,0 km/h (0 Bft)
01.09.2014 22:36 15,1 C 12,8 C 91 % 1020,5 hPa 0,0 l/m 0 min 0 min 0,0 UV-I 0 W/m 0,0 km/h (0 Bft)
01.09.2014 22:38 15,1 C 12,8 C 91 % 1020,6 hPa 0,0 l/m 0 min 0 min 0,0 UV-I 0 W/m 0,0 km/h (0 Bft)
01.09.2014 22:40 15,1 C 12,8 C 91 % 1020,5 hPa 0,0 l/m 0 min 0 min 0,0 UV-I 0 W/m 0,0 km/h (0 Bft)
01.09.2014 22:42 15,1 C 12,8 C 91 % 1020,5 hPa 0,0 l/m 0 min 0 min 0,0 UV-I 0 W/m 0,0 km/h (0 Bft)
01.09.2014 22:44 15,1 C 12,8 C 91 % 1020,5 hPa 0,0 l/m 0 min 0 min 0,0 UV-I 0 W/m 0,0 km/h (0 Bft)
01.09.2014 22:46 15,0 C 12,8 C 91 % 1020,6 hPa 0,0 l/m 0 min 0 min 0,0 UV-I 0 W/m 0,0 km/h (0 Bft)
01.09.2014 22:48 15,0 C 12,8 C 91 % 1020,5 hPa 0,0 l/m 0 min 0 min 0,0 UV-I 0 W/m 0,0 km/h (0 Bft)
01.09.2014 22:50 15,0 C 12,8 C 91 % 1020,6 hPa 0,0 l/m 0 min 0 min 0,0 UV-I 0 W/m 0,0 km/h (0 Bft)
01.09.2014 22:51 14,9 C 12,8 C 91 % 1020,6 hPa 0,0 l/m 0 min 0 min 0,0 UV-I 0 W/m 0,0 km/h (0 Bft)
01.09.2014 22:52 14,9 C 12,8 C 91 % 1020,5 hPa 0,0 l/m 0 min 0 min 0,0 UV-I 0 W/m 0,0 km/h (0 Bft)
01.09.2014 22:53 14,9 C 12,8 C 91 % 1020,5 hPa 0,0 l/m 0 min 0 min 0,0 UV-I 0 W/m 0,0 km/h (0 Bft)
01.09.2014 22:54 14,9 C 12,8 C 91 % 1020,6 hPa 0,0 l/m 0 min 0 min 0,0 UV-I 0 W/m 0,0 km/h (0 Bft)
01.09.2014 22:56 14,9 C 12,8 C 91 % 1020,5 hPa 0,0 l/m 0 min 0 min 0,0 UV-I 0 W/m 0,0 km/h (0 Bft)
01.09.2014 22:58 14,9 C 12,8 C 91 % 1020,5 hPa 0,0 l/m 0 min 0 min 0,0 UV-I 0 W/m 0,0 km/h (0 Bft)
01.09.2014 23:00 14,9 C 12,8 C 91 % 1020,4 hPa 0,0 l/m 0 min 0 min 0,0 UV-I 0 W/m 0,0 km/h (0 Bft)
01.09.2014 23:02 14,8 C 12,8 C 92 % 1020,4 hPa 0,0 l/m 0 min 0 min 0,0 UV-I 0 W/m 0,0 km/h (0 Bft)
01.09.2014 23:04 14,8 C 12,8 C 92 % 1020,4 hPa 0,0 l/m 0 min 0 min 0,0 UV-I 0 W/m 0,0 km/h (0 Bft)
01.09.2014 23:06 14,8 C 12,8 C 92 % 1020,5 hPa 0,0 l/m 0 min 0 min 0,0 UV-I 0 W/m 0,0 km/h (0 Bft)
01.09.2014 23:08 14,8 C 12,8 C 92 % 1020,4 hPa 0,0 l/m 0 min 0 min 0,0 UV-I 0 W/m 0,0 km/h (0 Bft)
01.09.2014 23:10 14,8 C 12,8 C 92 % 1020,4 hPa 0,0 l/m 0 min 0 min 0,0 UV-I 0 W/m 0,0 km/h (0 Bft)
01.09.2014 23:12 14,8 C 12,8 C 92 % 1020,4 hPa 0,0 l/m 0 min 0 min 0,0 UV-I 0 W/m 0,0 km/h (0 Bft)
01.09.2014 23:14 14,7 C 12,8 C 92 % 1020,5 hPa 0,0 l/m 0 min 0 min 0,0 UV-I 0 W/m 0,0 km/h (0 Bft)
01.09.2014 23:16 14,7 C 12,8 C 92 % 1020,5 hPa 0,0 l/m 0 min 0 min 0,0 UV-I 0 W/m 0,0 km/h (0 Bft)
01.09.2014 23:18 14,7 C 12,8 C 92 % 1020,5 hPa 0,0 l/m 0 min 0 min 0,0 UV-I 0 W/m 0,0 km/h (0 Bft)
01.09.2014 23:20 14,7 C 12,8 C 92 % 1020,5 hPa 0,0 l/m 0 min 0 min 0,0 UV-I 0 W/m 0,0 km/h (0 Bft)
01.09.2014 23:22 14,7 C 12,8 C 92 % 1020,5 hPa 0,0 l/m 0 min 0 min 0,0 UV-I 0 W/m 0,0 km/h (0 Bft)
01.09.2014 23:24 14,7 C 12,8 C 92 % 1020,5 hPa 0,0 l/m 0 min 0 min 0,0 UV-I 0 W/m 0,0 km/h (0 Bft)
01.09.2014 23:26 14,7 C 12,8 C 92 % 1020,6 hPa 0,0 l/m 0 min 0 min 0,0 UV-I 0 W/m 0,0 km/h (0 Bft)
01.09.2014 23:28 14,6 C 12,8 C 92 % 1020,6 hPa 0,0 l/m 0 min 0 min 0,0 UV-I 0 W/m 0,0 km/h (0 Bft)
01.09.2014 23:30 14,6 C 12,8 C 92 % 1020,7 hPa 0,0 l/m 0 min 0 min 0,0 UV-I 0 W/m 0,0 km/h (0 Bft)
01.09.2014 23:32 14,6 C 12,8 C 92 % 1020,7 hPa 0,0 l/m 0 min 0 min 0,0 UV-I 0 W/m 0,0 km/h (0 Bft)
01.09.2014 23:34 14,6 C 12,8 C 92 % 1020,6 hPa 0,0 l/m 0 min 0 min 0,0 UV-I 0 W/m 0,0 km/h (0 Bft)
01.09.2014 23:36 14,6 C 12,8 C 92 % 1020,6 hPa 0,0 l/m 0 min 0 min 0,0 UV-I 0 W/m 0,0 km/h (0 Bft)
01.09.2014 23:38 14,6 C 12,8 C 92 % 1020,6 hPa 0,0 l/m 0 min 0 min 0,0 UV-I 0 W/m 0,0 km/h (0 Bft)
01.09.2014 23:40 14,6 C 12,8 C 92 % 1020,6 hPa 0,0 l/m 0 min 0 min 0,0 UV-I 0 W/m 0,0 km/h (0 Bft)
01.09.2014 23:42 14,5 C 12,8 C 92 % 1020,6 hPa 0,0 l/m 0 min 0 min 0,0 UV-I 0 W/m 0,0 km/h (0 Bft)
01.09.2014 23:44 14,5 C 12,8 C 92 % 1020,6 hPa 0,0 l/m 0 min 0 min 0,0 UV-I 0 W/m 0,0 km/h (0 Bft)
01.09.2014 23:46 14,5 C 12,2 C 92 % 1020,6 hPa 0,0 l/m 0 min 0 min 0,0 UV-I 0 W/m 0,0 km/h (0 Bft)
01.09.2014 23:48 14,5 C 12,2 C 92 % 1020,5 hPa 0,0 l/m 0 min 0 min 0,0 UV-I 0 W/m 0,0 km/h (0 Bft)
01.09.2014 23:50 14,4 C 12,2 C 92 % 1020,5 hPa 0,0 l/m 0 min 0 min 0,0 UV-I 0 W/m 0,0 km/h (0 Bft)
01.09.2014 23:52 14,4 C 12,2 C 92 % 1020,6 hPa 0,0 l/m 0 min 0 min 0,0 UV-I 0 W/m 0,0 km/h (0 Bft)
01.09.2014 23:54 14,4 C 12,2 C 92 % 1020,5 hPa 0,0 l/m 0 min 0 min 0,0 UV-I 0 W/m 0,0 km/h (0 Bft)
01.09.2014 23:56 14,4 C 12,2 C 92 % 1020,5 hPa 0,0 l/m 0 min 0 min 0,0 UV-I 0 W/m 0,0 km/h (0 Bft)
01.09.2014 23:58 14,4 C 12,2 C 92 % 1020,6 hPa 0,0 l/m 0 min 0 min 0,0 UV-I 0 W/m 0,0 km/h (0 Bft)
_ Min-Zeit 04:12 01:48 16:48 00:02 - - - - - 00:00
Minimum _ 10,8 C 9,4 C 70 % 1017,6 hPa - - - - - 0,0 km/h (0 Bft)
_ Max-Zeit 16:40 15:26 11:46 11:10 09:36 10:30 00:00 00:00 10:30 11:40
Maximum _ 20,3 C 20,6 C 100 % 1021,0 hPa 0,2 l/m 2 min 0 min 0,0 UV-I 400 W/m 24,4 km/h
N (4 Bft)
Durchschnitt _ 14,9 C 13,7 C 90 % 1019,8 hPa #0,2 l/m #2 min. #0 min. 0,0 UV-I 400 W/m 4,7 km/h (1 Bft)
© 2014 W. Hausmann